Time,TemperatureF,DewpointF,PressureIn,WindDirection,WindDirectionDegrees,WindSpeedMPH,WindSpeedGustMPH,Humidity,HourlyPrecipIn,Conditions,Clouds,dailyrainin,SoftwareType,DateUTC
2013-04-23 00:00:00,57.2,24.4,29.96,NNW,329,0.0,0.0,28,0.00,,CLR,0.00,VWS V14.01,2013-04-23 05:00:00,
2013-04-23 00:01:00,57.2,24.4,29.96,NNW,329,0.0,0.0,28,0.00,,CLR,0.00,VWS V14.01,2013-04-23 05:01:00,
2013-04-23 00:03:00,57.2,24.4,29.96,NNW,329,0.0,0.0,28,0.00,,CLR,0.00,VWS V14.01,2013-04-23 05:03:00,
2013-04-23 00:04:00,57.2,24.4,29.96,NNW,329,0.0,0.0,28,0.00,,CLR,0.00,VWS V14.01,2013-04-23 05:04:00,
2013-04-23 00:05:00,57.2,24.4,29.96,NNW,329,0.0,0.0,28,0.00,,CLR,0.00,VWS V14.01,2013-04-23 05:05:00,
2013-04-23 00:06:00,57.4,24.6,29.96,NNW,329,3.6,3.6,28,0.00,,CLR,0.00,VWS V14.01,2013-04-23 05:06:00,
2013-04-23 00:09:00,57.4,24.6,29.93,NNW,329,3.1,4.0,28,0.00,,CLR,0.00,VWS V14.01,2013-04-23 05:09:00,
2013-04-23 00:10:00,57.4,24.6,29.93,NNW,329,2.7,4.0,28,0.00,,CLR,0.00,VWS V14.01,2013-04-23 05:10:00,
2013-04-23 00:11:00,57.4,24.6,29.93,NNW,329,0.0,3.1,28,0.00,,CLR,0.00,VWS V14.01,2013-04-23 05:11:00,
2013-04-23 00:12:00,57.4,24.6,29.93,NNW,329,0.0,0.0,28,0.00,,CLR,0.00,VWS V14.01,2013-04-23 05:12:00,
2013-04-23 00:13:00,57.4,24.6,29.93,NNW,329,0.0,0.0,28,0.00,,CLR,0.00,VWS V14.01,2013-04-23 05:13:00,
2013-04-23 00:14:00,57.4,24.6,29.93,NNW,329,0.0,0.0,28,0.00,,CLR,0.00,VWS V14.01,2013-04-23 05:14:00,
2013-04-23 00:15:00,57.4,24.6,29.93,NNW,329,0.0,0.0,28,0.00,,CLR,0.00,VWS V14.01,2013-04-23 05:15:00,
2013-04-23 00:17:00,57.4,24.6,29.93,NNW,329,0.0,0.0,28,0.00,,CLR,0.00,VWS V14.01,2013-04-23 05:17:00,
2013-04-23 00:18:00,57.4,24.6,29.93,NNW,329,0.0,0.0,28,0.00,,CLR,0.00,VWS V14.01,2013-04-23 05:18:00,
2013-04-23 00:20:00,57.4,24.6,29.93,NNW,329,0.0,0.0,28,0.00,,CLR,0.00,VWS V14.01,2013-04-23 05:20:00,
2013-04-23 00:22:00,57.2,24.4,29.93,NNW,329,0.0,0.0,28,0.00,,CLR,0.00,VWS V14.01,2013-04-23 05:22:00,
2013-04-23 00:23:00,57.2,24.4,29.93,NE,46,3.1,3.1,28,0.00,,CLR,0.00,VWS V14.01,2013-04-23 05:23:00,
2013-04-23 00:24:00,57.2,24.4,29.93,NE,46,2.7,3.1,28,0.00,,CLR,0.00,VWS V14.01,2013-04-23 05:24:00,
2013-04-23 00:26:00,57.2,24.4,29.96,ENE,63,0.0,3.6,28,0.00,,CLR,0.00,VWS V14.01,2013-04-23 05:26:00,
2013-04-23 00:27:00,57.2,24.4,29.96,ENE,63,0.0,0.0,28,0.00,,CLR,0.00,VWS V14.01,2013-04-23 05:27:00,
2013-04-23 00:29:00,57.2,24.4,29.96,ENE,63,0.0,0.0,28,0.00,,CLR,0.00,VWS V14.01,2013-04-23 05:29:00,
2013-04-23 00:30:00,57.0,25.9,29.96,ENE,63,0.0,0.0,30,0.00,,CLR,0.00,VWS V14.01,2013-04-23 05:30:00,
2013-04-23 00:31:00,57.0,25.9,29.96,ENE,63,0.0,0.0,30,0.00,,CLR,0.00,VWS V14.01,2013-04-23 05:31:00,
2013-04-23 00:32:00,57.0,25.9,29.96,ENE,63,0.0,0.0,30,0.00,,CLR,0.00,VWS V14.01,2013-04-23 05:32:00,
2013-04-23 00:35:00,56.8,25.8,29.96,ENE,63,3.1,3.1,30,0.00,,CLR,0.00,VWS V14.01,2013-04-23 05:35:00,
2013-04-23 00:36:00,56.8,25.8,29.96,ENE,63,2.7,3.1,30,0.00,,CLR,0.00,VWS V14.01,2013-04-23 05:36:00,
2013-04-23 00:37:00,56.8,25.8,29.96,ENE,63,2.7,2.7,30,0.00,,CLR,0.00,VWS V14.01,2013-04-23 05:37:00,
2013-04-23 00:38:00,56.8,25.8,29.96,ENE,63,0.0,2.7,30,0.00,,CLR,0.00,VWS V14.01,2013-04-23 05:38:00,
2013-04-23 00:41:00,56.7,25.6,29.93,ENE,63,0.0,0.0,30,0.00,,CLR,0.00,VWS V14.01,2013-04-23 05:41:00,
2013-04-23 00:43:00,56.7,25.6,29.93,ENE,63,0.0,0.0,30,0.00,,CLR,0.00,VWS V14.01,2013-04-23 05:43:00,
2013-04-23 00:46:00,56.7,25.6,29.93,ENE,63,2.7,2.7,30,0.00,,CLR,0.00,VWS V14.01,2013-04-23 05:46:00,
2013-04-23 00:47:00,56.7,25.6,29.93,ENE,63,2.7,3.6,30,0.00,,CLR,0.00,VWS V14.01,2013-04-23 05:47:00,
2013-04-23 00:48:00,56.7,25.6,29.93,ENE,63,0.0,2.7,30,0.00,,CLR,0.00,VWS V14.01,2013-04-23 05:48:00,
2013-04-23 00:51:00,56.7,25.6,29.93,ENE,63,2.2,4.0,30,0.00,,CLR,0.00,VWS V14.01,2013-04-23 05:51:00,
2013-04-23 00:52:00,56.5,25.4,29.93,ENE,63,0.0,0.0,30,0.00,,CLR,0.00,VWS V14.01,2013-04-23 05:52:00,
2013-04-23 00:53:00,56.5,25.4,29.93,ENE,63,0.0,0.0,30,0.00,,CLR,0.00,VWS V14.01,2013-04-23 05:53:00,
2013-04-23 00:56:00,56.5,25.4,29.93,ENE,63,0.0,0.0,30,0.00,,CLR,0.00,VWS V14.01,2013-04-23 05:56:00,
2013-04-23 00:58:00,56.3,25.3,29.93,ENE,63,0.0,2.7,30,0.00,,CLR,0.00,VWS V14.01,2013-04-23 05:58:00,
2013-04-23 00:59:00,56.3,25.3,29.93,ENE,63,0.0,0.0,30,0.00,,CLR,0.00,VWS V14.01,2013-04-23 05:59:00,
2013-04-23 01:01:00,56.3,28.3,29.93,ENE,63,0.0,0.0,34,0.00,,CLR,0.00,VWS V14.01,2013-04-23 06:01:00,
2013-04-23 01:03:00,56.3,28.3,29.93,ENE,63,0.0,0.0,34,0.00,,CLR,0.00,VWS V14.01,2013-04-23 06:03:00,
2013-04-23 01:04:00,56.3,28.3,29.93,ENE,63,0.0,0.0,34,0.00,,CLR,0.00,VWS V14.01,2013-04-23 06:04:00,
2013-04-23 01:06:00,56.5,28.5,29.93,ENE,63,0.0,0.0,34,0.00,,CLR,0.00,VWS V14.01,2013-04-23 06:06:00,
2013-04-23 01:08:00,56.3,28.3,29.93,ENE,64,0.0,0.0,34,0.00,,CLR,0.00,VWS V14.01,2013-04-23 06:08:00,
2013-04-23 01:09:00,56.3,28.3,29.93,ENE,63,0.0,0.0,34,0.00,,CLR,0.00,VWS V14.01,2013-04-23 06:09:00,
2013-04-23 01:10:00,56.3,28.3,29.93,ENE,64,0.0,0.0,34,0.00,,CLR,0.00,VWS V14.01,2013-04-23 06:10:00,
2013-04-23 01:13:00,56.3,28.3,29.93,ENE,63,0.0,0.0,34,0.00,,CLR,0.00,VWS V14.01,2013-04-23 06:13:00,
2013-04-23 01:14:00,56.3,28.3,29.93,ENE,63,0.0,0.0,34,0.00,,CLR,0.00,VWS V14.01,2013-04-23 06:14:00,
2013-04-23 01:15:00,56.1,28.1,29.93,ENE,63,0.0,0.0,34,0.00,,CLR,0.00,VWS V14.01,2013-04-23 06:15:00,
2013-04-23 01:16:00,56.1,28.1,29.93,ENE,63,0.0,0.0,34,0.00,,CLR,0.00,VWS V14.01,2013-04-23 06:16:00,
2013-04-23 01:18:00,56.1,28.1,29.93,ENE,64,0.0,0.0,34,0.00,,CLR,0.00,VWS V14.01,2013-04-23 06:18:00,
2013-04-23 01:20:00,55.9,28.0,29.93,ENE,63,0.0,0.0,34,0.00,,CLR,0.00,VWS V14.01,2013-04-23 06:20:00,
2013-04-23 01:21:00,55.9,28.0,29.93,ENE,63,0.0,0.0,34,0.00,,CLR,0.00,VWS V14.01,2013-04-23 06:21:00,
2013-04-23 01:25:00,55.9,28.0,29.93,ENE,63,0.0,0.0,34,0.00,,CLR,0.00,VWS V14.01,2013-04-23 06:25:00,
2013-04-23 01:26:00,55.9,28.0,29.93,ENE,63,0.0,0.0,34,0.00,,CLR,0.00,VWS V14.01,2013-04-23 06:26:00,
2013-04-23 01:31:00,55.9,28.0,29.93,ENE,63,0.0,0.0,34,0.00,,CLR,0.00,VWS V14.01,2013-04-23 06:31:00,
2013-04-23 01:32:00,55.8,27.8,29.93,ENE,63,0.0,0.0,34,0.00,,CLR,0.00,VWS V14.01,2013-04-23 06:32:00,
2013-04-23 01:33:00,55.8,27.8,29.93,ENE,63,0.0,0.0,34,0.00,,CLR,0.00,VWS V14.01,2013-04-23 06:33:00,
2013-04-23 01:36:00,55.8,27.8,29.93,ENE,63,0.0,0.0,34,0.00,,CLR,0.00,VWS V14.01,2013-04-23 06:36:00,
2013-04-23 01:38:00,55.8,27.8,29.93,ENE,63,0.0,0.0,34,0.00,,CLR,0.00,VWS V14.01,2013-04-23 06:38:00,
2013-04-23 01:41:00,55.8,27.8,29.93,ENE,63,0.0,0.0,34,0.00,,CLR,0.00,VWS V14.01,2013-04-23 06:41:00,
2013-04-23 01:42:00,55.8,27.8,29.93,ENE,63,0.0,0.0,34,0.00,,CLR,0.00,VWS V14.01,2013-04-23 06:42:00,
2013-04-23 01:43:00,55.8,27.8,29.93,ENE,63,0.0,0.0,34,0.00,,CLR,0.00,VWS V14.01,2013-04-23 06:43:00,
2013-04-23 01:47:00,55.9,28.0,29.93,ENE,63,0.0,0.0,34,0.00,,CLR,0.00,VWS V14.01,2013-04-23 06:47:00,
2013-04-23 01:49:00,55.9,28.0,29.93,ENE,63,0.0,0.0,34,0.00,,CLR,0.00,VWS V14.01,2013-04-23 06:49:00,
2013-04-23 01:52:00,55.9,28.0,29.93,ENE,63,0.0,0.0,34,0.00,,CLR,0.00,VWS V14.01,2013-04-23 06:52:00,
2013-04-23 01:53:00,55.9,28.0,29.93,ENE,63,0.0,0.0,34,0.00,,CLR,0.00,VWS V14.01,2013-04-23 06:53:00,
2013-04-23 01:54:00,55.9,28.0,29.96,ENE,63,0.0,0.0,34,0.00,,CLR,0.00,VWS V14.01,2013-04-23 06:54:00,
2013-04-23 01:56:00,55.9,28.0,29.96,ENE,64,0.0,0.0,34,0.00,,CLR,0.00,VWS V14.01,2013-04-23 06:56:00,
2013-04-23 01:57:00,55.8,27.8,29.96,ENE,63,0.0,0.0,34,0.00,,CLR,0.00,VWS V14.01,2013-04-23 06:57:00,
2013-04-23 01:58:00,55.8,27.8,29.96,ENE,64,0.0,0.0,34,0.00,,CLR,0.00,VWS V14.01,2013-04-23 06:58:00,
2013-04-23 01:59:00,55.8,27.8,29.96,ENE,63,0.0,0.0,34,0.00,,CLR,0.00,VWS V14.01,2013-04-23 06:59:00,
2013-04-23 02:00:00,55.8,27.8,29.96,ENE,63,0.0,0.0,34,0.00,,CLR,0.00,VWS V14.01,2013-04-23 07:00:00,
2013-04-23 02:02:00,55.4,31.5,29.96,ENE,64,0.0,0.0,40,0.00,,CLR,0.00,VWS V14.01,2013-04-23 07:02:00,
2013-04-23 02:03:00,55.4,31.5,29.96,ENE,63,0.0,0.0,40,0.00,,CLR,0.00,VWS V14.01,2013-04-23 07:03:00,
2013-04-23 02:05:00,55.2,31.3,29.96,ENE,63,0.0,0.0,40,0.00,,CLR,0.00,VWS V14.01,2013-04-23 07:05:00,
2013-04-23 02:06:00,55.2,31.3,29.96,ENE,63,0.0,0.0,40,0.00,,CLR,0.00,VWS V14.01,2013-04-23 07:06:00,
2013-04-23 02:07:00,55.2,31.3,29.96,ENE,63,0.0,0.0,40,0.00,,CLR,0.00,VWS V14.01,2013-04-23 07:07:00,
2013-04-23 02:09:00,55.0,31.2,29.96,ENE,63,0.0,0.0,40,0.00,,CLR,0.00,VWS V14.01,2013-04-23 07:09:00,
2013-04-23 02:10:00,55.0,31.2,29.93,ENE,64,0.0,0.0,40,0.00,,CLR,0.00,VWS V14.01,2013-04-23 07:10:00,
2013-04-23 02:12:00,55.0,31.2,29.93,ENE,63,0.0,0.0,40,0.00,,CLR,0.00,VWS V14.01,2013-04-23 07:12:00,
2013-04-23 02:13:00,55.0,31.2,29.93,ENE,63,0.0,0.0,40,0.00,,CLR,0.00,VWS V14.01,2013-04-23 07:13:00,
2013-04-23 02:15:00,54.9,31.0,29.93,NE,44,0.0,0.0,40,0.00,,CLR,0.00,VWS V14.01,2013-04-23 07:15:00,
2013-04-23 02:16:00,54.9,36.6,29.93,NE,44,2.2,2.2,50,0.00,,CLR,0.00,VWS V14.01,2013-04-23 07:16:00,
2013-04-23 02:18:00,54.7,37.4,29.93,NE,44,4.0,4.0,52,0.00,,CLR,0.00,VWS V14.01,2013-04-23 07:18:00,
2013-04-23 02:19:00,54.5,37.2,29.93,NE,40,3.1,3.1,52,0.00,,CLR,0.00,VWS V14.01,2013-04-23 07:19:00,
2013-04-23 02:21:00,54.5,37.2,29.93,NE,38,3.6,4.0,52,0.00,,CLR,0.00,VWS V14.01,2013-04-23 07:21:00,
2013-04-23 02:22:00,54.5,37.2,29.93,NNE,33,2.7,3.6,52,0.00,,CLR,0.00,VWS V14.01,2013-04-23 07:22:00,
2013-04-23 02:23:00,54.5,37.2,29.93,NNE,33,3.1,3.1,52,0.00,,CLR,0.00,VWS V14.01,2013-04-23 07:23:00,
2013-04-23 02:24:00,54.5,37.2,29.93,NNE,32,0.0,0.0,52,0.00,,CLR,0.00,VWS V14.01,2013-04-23 07:24:00,
2013-04-23 02:26:00,54.5,37.2,29.93,West,265,4.0,4.0,52,0.00,,CLR,0.00,VWS V14.01,2013-04-23 07:26:00,
2013-04-23 02:27:00,54.5,37.2,29.93,West,265,3.6,4.0,52,0.00,,CLR,0.00,VWS V14.01,2013-04-23 07:27:00,
2013-04-23 02:29:00,54.5,38.2,29.93,WNW,294,2.7,3.1,54,0.00,,CLR,0.00,VWS V14.01,2013-04-23 07:29:00,
2013-04-23 02:30:00,54.3,38.0,29.93,WNW,294,3.1,3.6,54,0.00,,CLR,0.00,VWS V14.01,2013-04-23 07:30:00,
2013-04-23 02:32:00,54.5,38.2,29.93,WNW,294,3.1,3.6,54,0.00,,CLR,0.00,VWS V14.01,2013-04-23 07:32:00,
2013-04-23 02:33:00,54.5,38.2,29.93,WNW,294,3.6,3.6,54,0.00,,CLR,0.00,VWS V14.01,2013-04-23 07:33:00,
2013-04-23 02:34:00,54.5,38.2,29.93,WNW,294,3.1,3.6,54,0.00,,CLR,0.00,VWS V14.01,2013-04-23 07:34:00,
2013-04-23 02:35:00,54.5,38.2,29.93,WNW,294,3.1,3.1,54,0.00,,CLR,0.00,VWS V14.01,2013-04-23 07:35:00,
2013-04-23 02:36:00,54.5,38.2,29.93,North,6,3.6,3.6,54,0.00,,CLR,0.00,VWS V14.01,2013-04-23 07:36:00,
2013-04-23 02:37:00,54.5,38.2,29.93,NE,34,3.1,4.0,54,0.00,,CLR,0.00,VWS V14.01,2013-04-23 07:37:00,
2013-04-23 02:38:00,54.5,38.2,29.93,NNE,31,3.6,3.6,54,0.00,,CLR,0.00,VWS V14.01,2013-04-23 07:38:00,
2013-04-23 02:40:00,54.5,38.2,29.96,NNE,27,3.1,3.6,54,0.00,,CLR,0.00,VWS V14.01,2013-04-23 07:40:00,
2013-04-23 02:41:00,54.7,37.4,29.96,NNE,23,4.0,4.0,52,0.00,,CLR,0.00,VWS V14.01,2013-04-23 07:41:00,
2013-04-23 02:42:00,54.7,37.4,29.96,NNE,23,3.6,4.0,52,0.00,,CLR,0.00,VWS V14.01,2013-04-23 07:42:00,
2013-04-23 02:44:00,54.7,38.4,29.96,North,8,3.6,3.6,54,0.00,,CLR,0.00,VWS V14.01,2013-04-23 07:44:00,
2013-04-23 02:45:00,54.7,39.3,29.96,NW,326,3.6,3.6,56,0.00,,CLR,0.00,VWS V14.01,2013-04-23 07:45:00,
2013-04-23 02:47:00,54.5,39.1,29.96,NW,326,3.1,3.1,56,0.00,,CLR,0.00,VWS V14.01,2013-04-23 07:47:00,
2013-04-23 02:48:00,54.5,39.1,29.96,NW,326,3.1,3.6,56,0.00,,CLR,0.00,VWS V14.01,2013-04-23 07:48:00,
2013-04-23 02:50:00,54.5,39.1,29.96,NW,325,4.0,4.9,56,0.00,,CLR,0.00,VWS V14.01,2013-04-23 07:50:00,
2013-04-23 02:51:00,54.5,39.1,29.96,NW,325,4.0,4.9,56,0.00,,CLR,0.00,VWS V14.01,2013-04-23 07:51:00,
2013-04-23 02:52:00,54.5,40.0,29.96,NW,325,4.0,4.0,58,0.00,,CLR,0.00,VWS V14.01,2013-04-23 07:52:00,
2013-04-23 02:53:00,54.5,40.0,29.96,North,357,4.0,4.0,58,0.00,,CLR,0.00,VWS V14.01,2013-04-23 07:53:00,
2013-04-23 02:54:00,54.5,40.0,29.96,North,7,5.4,5.4,58,0.00,,CLR,0.00,VWS V14.01,2013-04-23 07:54:00,
2013-04-23 02:55:00,54.3,39.0,29.96,North,8,5.8,5.8,56,0.00,,CLR,0.00,VWS V14.01,2013-04-23 07:55:00,
2013-04-23 02:56:00,54.5,39.1,29.96,NNE,17,5.4,5.4,56,0.00,,CLR,0.00,VWS V14.01,2013-04-23 07:56:00,
2013-04-23 02:58:00,54.5,38.2,29.96,North,9,5.4,5.8,54,0.00,,CLR,0.00,VWS V14.01,2013-04-23 07:58:00,
2013-04-23 02:59:00,54.5,38.2,29.96,North,8,4.9,4.9,54,0.00,,CLR,0.00,VWS V14.01,2013-04-23 07:59:00,
2013-04-23 03:00:00,54.5,39.1,29.96,North,353,4.5,5.4,56,0.00,,CLR,0.00,VWS V14.01,2013-04-23 08:00:00,
2013-04-23 03:01:00,54.5,39.1,29.96,North,353,4.0,5.4,56,0.00,,CLR,0.00,VWS V14.01,2013-04-23 08:01:00,
2013-04-23 03:02:00,54.5,38.2,29.96,North,353,4.0,4.0,54,0.00,,CLR,0.00,VWS V14.01,2013-04-23 08:02:00,
2013-04-23 03:03:00,54.5,39.1,29.96,North,353,4.9,4.9,56,0.00,,CLR,0.00,VWS V14.01,2013-04-23 08:03:00,
2013-04-23 03:04:00,54.3,38.0,29.96,North,0,4.0,4.0,54,0.00,,CLR,0.00,VWS V14.01,2013-04-23 08:04:00,
2013-04-23 03:06:00,54.3,38.0,29.96,North,0,2.2,4.0,54,0.00,,CLR,0.00,VWS V14.01,2013-04-23 08:06:00,
2013-04-23 03:07:00,54.1,37.9,29.96,North,0,0.0,0.0,54,0.00,,CLR,0.00,VWS V14.01,2013-04-23 08:07:00,
2013-04-23 03:10:00,54.1,37.9,29.93,North,0,0.0,0.0,54,0.00,,CLR,0.00,VWS V14.01,2013-04-23 08:10:00,
2013-04-23 03:11:00,54.0,37.7,29.93,North,0,0.0,0.0,54,0.00,,CLR,0.00,VWS V14.01,2013-04-23 08:11:00,
2013-04-23 03:12:00,53.8,37.5,29.93,North,0,0.0,0.0,54,0.00,,CLR,0.00,VWS V14.01,2013-04-23 08:12:00,
2013-04-23 03:14:00,53.8,37.5,29.93,North,5,0.0,0.0,54,0.00,,CLR,0.00,VWS V14.01,2013-04-23 08:14:00,
2013-04-23 03:15:00,53.6,37.4,29.93,NNE,30,3.6,4.0,54,0.00,,CLR,0.00,VWS V14.01,2013-04-23 08:15:00,
2013-04-23 03:16:00,53.6,37.4,29.93,NNE,22,3.6,4.0,54,0.00,,CLR,0.00,VWS V14.01,2013-04-23 08:16:00,
2013-04-23 03:17:00,53.6,37.4,29.93,NNE,16,7.2,7.6,54,0.00,,CLR,0.00,VWS V14.01,2013-04-23 08:17:00,
2013-04-23 03:18:00,53.6,38.3,29.93,North,3,7.6,7.6,56,0.00,,CLR,0.00,VWS V14.01,2013-04-23 08:18:00,
2013-04-23 03:19:00,53.8,38.5,29.93,North,5,6.7,6.7,56,0.00,,CLR,0.00,VWS V14.01,2013-04-23 08:19:00,
2013-04-23 03:21:00,53.6,39.2,29.93,NNE,19,7.6,7.6,58,0.00,,CLR,0.00,VWS V14.01,2013-04-23 08:21:00,
2013-04-23 03:22:00,53.6,39.2,29.93,NNE,20,6.3,8.1,58,0.00,,CLR,0.00,VWS V14.01,2013-04-23 08:22:00,
2013-04-23 03:23:00,53.6,39.2,29.93,NNE,16,5.4,5.4,58,0.00,,CLR,0.00,VWS V14.01,2013-04-23 08:23:00,
2013-04-23 03:24:00,53.6,38.3,29.90,NNE,23,2.7,4.9,56,0.00,,CLR,0.00,VWS V14.01,2013-04-23 08:24:00,
2013-04-23 03:26:00,53.6,38.3,29.90,NNE,31,0.0,0.0,56,0.00,,CLR,0.00,VWS V14.01,2013-04-23 08:26:00,
2013-04-23 03:27:00,53.6,38.3,29.90,NNE,31,0.0,0.0,56,0.00,,CLR,0.00,VWS V14.01,2013-04-23 08:27:00,
2013-04-23 03:29:00,53.2,38.9,29.90,NNE,31,0.0,2.2,58,0.00,,CLR,0.00,VWS V14.01,2013-04-23 08:29:00,
2013-04-23 03:30:00,53.2,38.9,29.90,NNE,31,0.0,0.0,58,0.00,,CLR,0.00,VWS V14.01,2013-04-23 08:30:00,
2013-04-23 03:31:00,53.1,38.7,29.90,NNE,31,0.0,0.0,58,0.00,,CLR,0.00,VWS V14.01,2013-04-23 08:31:00,
2013-04-23 03:32:00,53.1,38.7,29.90,NNE,31,0.0,0.0,58,0.00,,CLR,0.00,VWS V14.01,2013-04-23 08:32:00,
2013-04-23 03:35:00,52.7,39.2,29.90,NNE,32,4.0,4.0,60,0.00,,CLR,0.00,VWS V14.01,2013-04-23 08:35:00,
2013-04-23 03:36:00,52.5,38.2,29.90,NNE,33,3.1,3.6,58,0.00,,CLR,0.00,VWS V14.01,2013-04-23 08:36:00,
2013-04-23 03:37:00,52.3,38.0,29.90,NE,47,4.0,4.0,58,0.00,,CLR,0.00,VWS V14.01,2013-04-23 08:37:00,
2013-04-23 03:38:00,52.3,38.0,29.90,NE,44,3.1,4.0,58,0.00,,CLR,0.00,VWS V14.01,2013-04-23 08:38:00,
2013-04-23 03:41:00,52.2,40.4,29.90,North,3,4.5,5.8,64,0.00,,CLR,0.00,VWS V14.01,2013-04-23 08:41:00,
2013-04-23 03:42:00,51.8,41.6,29.90,North,0,4.9,4.9,68,0.00,,CLR,0.00,VWS V14.01,2013-04-23 08:42:00,
2013-04-23 03:43:00,51.6,42.9,29.90,North,357,5.8,5.8,72,0.00,,CLR,0.00,VWS V14.01,2013-04-23 08:43:00,
2013-04-23 03:44:00,51.6,42.9,29.90,North,357,5.8,5.8,72,0.00,,CLR,0.00,VWS V14.01,2013-04-23 08:44:00,
2013-04-23 03:45:00,51.4,43.4,29.90,NNE,12,6.3,6.7,74,0.00,,CLR,0.00,VWS V14.01,2013-04-23 08:45:00,
2013-04-23 03:46:00,51.4,43.4,29.90,North,6,6.3,6.7,74,0.00,,CLR,0.00,VWS V14.01,2013-04-23 08:46:00,
2013-04-23 03:47:00,51.4,43.4,29.90,NNE,15,5.8,6.7,74,0.00,,CLR,0.00,VWS V14.01,2013-04-23 08:47:00,
2013-04-23 03:49:00,51.4,43.4,29.90,North,353,5.8,5.8,74,0.00,,CLR,0.00,VWS V14.01,2013-04-23 08:49:00,
2013-04-23 03:51:00,51.6,43.6,29.90,NNW,331,5.8,6.3,74,0.00,,CLR,0.00,VWS V14.01,2013-04-23 08:51:00,
2013-04-23 03:52:00,51.6,43.6,29.90,NNW,332,5.8,6.3,74,0.00,,CLR,0.00,VWS V14.01,2013-04-23 08:52:00,
2013-04-23 03:53:00,51.6,43.6,29.90,NNW,329,6.3,6.3,74,0.00,,CLR,0.00,VWS V14.01,2013-04-23 08:53:00,
2013-04-23 03:54:00,52.0,43.2,29.93,NNW,344,6.7,7.6,72,0.00,,CLR,0.00,VWS V14.01,2013-04-23 08:54:00,
2013-04-23 03:55:00,52.0,43.2,29.93,NNW,344,6.7,7.6,72,0.00,,CLR,0.00,VWS V14.01,2013-04-23 08:55:00,
2013-04-23 03:57:00,52.5,42.3,29.93,NNE,31,8.3,8.3,68,0.00,,CLR,0.00,VWS V14.01,2013-04-23 08:57:00,
2013-04-23 03:58:00,52.5,41.5,29.93,North,0,10.1,10.1,66,0.00,,CLR,0.00,VWS V14.01,2013-04-23 08:58:00,
2013-04-23 03:59:00,52.9,40.2,29.93,North,11,10.5,10.5,62,0.00,,CLR,0.00,VWS V14.01,2013-04-23 08:59:00,
2013-04-23 04:00:00,52.9,40.2,29.93,North,5,9.2,10.5,62,0.00,,CLR,0.00,VWS V14.01,2013-04-23 09:00:00,
2013-04-23 04:03:00,53.6,39.2,29.93,North,8,8.3,8.7,58,0.00,,CLR,0.00,VWS V14.01,2013-04-23 09:03:00,
2013-04-23 04:04:00,53.6,39.2,29.93,North,7,10.1,10.1,58,0.00,,CLR,0.00,VWS V14.01,2013-04-23 09:04:00,
2013-04-23 04:05:00,53.6,39.2,29.93,North,0,8.3,8.3,58,0.00,,CLR,0.00,VWS V14.01,2013-04-23 09:05:00,
2013-04-23 04:08:00,53.8,38.5,29.93,North,353,8.3,8.7,56,0.00,,CLR,0.00,VWS V14.01,2013-04-23 09:08:00,
2013-04-23 04:09:00,53.8,38.5,29.93,North,0,7.6,8.7,56,0.00,,CLR,0.00,VWS V14.01,2013-04-23 09:09:00,
2013-04-23 04:10:00,53.8,38.5,29.93,NNW,340,6.3,7.6,56,0.00,,CLR,0.00,VWS V14.01,2013-04-23 09:10:00,
2013-04-23 04:14:00,54.0,38.6,29.93,North,353,9.2,9.2,56,0.00,,CLR,0.00,VWS V14.01,2013-04-23 09:14:00,
2013-04-23 04:15:00,54.0,38.6,29.93,North,3,9.2,11.0,56,0.00,,CLR,0.00,VWS V14.01,2013-04-23 09:15:00,
2013-04-23 04:16:00,54.1,38.8,29.93,NNE,14,10.5,10.5,56,0.00,,CLR,0.00,VWS V14.01,2013-04-23 09:16:00,
2013-04-23 04:19:00,54.1,38.8,29.93,North,353,7.6,8.7,56,0.00,,CLR,0.00,VWS V14.01,2013-04-23 09:19:00,
2013-04-23 04:21:00,54.1,38.8,29.93,NNW,346,6.3,9.2,56,0.00,,CLR,0.00,VWS V14.01,2013-04-23 09:21:00,
2013-04-23 04:22:00,54.3,39.0,29.93,NNW,335,6.7,8.1,56,0.00,,CLR,0.00,VWS V14.01,2013-04-23 09:22:00,
2013-04-23 04:26:00,54.1,38.8,29.93,NNW,339,12.3,12.3,56,0.00,,CLR,0.00,VWS V14.01,2013-04-23 09:26:00,
2013-04-23 04:27:00,54.1,38.8,29.93,North,0,11.0,11.0,56,0.00,,CLR,0.00,VWS V14.01,2013-04-23 09:27:00,
2013-04-23 04:31:00,53.8,41.1,29.93,North,357,12.8,12.8,62,0.00,,CLR,0.00,VWS V14.01,2013-04-23 09:31:00,
2013-04-23 04:32:00,53.8,41.9,29.93,North,357,10.1,13.2,64,0.00,,CLR,0.00,VWS V14.01,2013-04-23 09:32:00,
2013-04-23 04:33:00,53.6,42.5,29.93,North,353,14.5,17.0,66,0.00,,CLR,0.00,VWS V14.01,2013-04-23 09:33:00,
2013-04-23 04:36:00,53.2,44.5,29.93,North,357,15.0,15.4,72,0.00,,CLR,0.00,VWS V14.01,2013-04-23 09:36:00,
2013-04-23 04:37:00,53.2,44.5,29.93,North,0,11.0,12.3,72,0.00,,CLR,0.00,VWS V14.01,2013-04-23 09:37:00,
2013-04-23 04:38:00,53.2,44.5,29.93,North,357,12.8,12.8,72,0.00,,CLR,0.00,VWS V14.01,2013-04-23 09:38:00,
2013-04-23 04:40:00,53.2,44.5,29.93,North,0,10.1,13.2,72,0.00,,CLR,0.00,VWS V14.01,2013-04-23 09:40:00,
2013-04-23 04:41:00,53.2,44.5,29.93,North,350,12.8,15.4,72,0.00,,CLR,0.00,VWS V14.01,2013-04-23 09:41:00,
2013-04-23 04:43:00,53.2,44.5,29.93,NNW,327,13.2,17.4,72,0.00,,CLR,0.00,VWS V14.01,2013-04-23 09:43:00,
2013-04-23 04:45:00,53.2,44.5,29.93,North,357,8.3,8.3,72,0.00,,CLR,0.00,VWS V14.01,2013-04-23 09:45:00,
2013-04-23 04:48:00,53.1,44.3,29.93,North,8,10.1,10.5,72,0.00,,CLR,0.00,VWS V14.01,2013-04-23 09:48:00,
2013-04-23 04:49:00,53.1,44.3,29.93,NNW,338,11.0,12.3,72,0.00,,CLR,0.00,VWS V14.01,2013-04-23 09:49:00,
2013-04-23 04:50:00,53.1,44.3,29.93,NNW,329,8.7,10.1,72,0.00,,CLR,0.00,VWS V14.01,2013-04-23 09:50:00,
2013-04-23 04:53:00,53.1,44.3,29.93,North,353,8.7,10.5,72,0.00,,CLR,0.00,VWS V14.01,2013-04-23 09:53:00,
2013-04-23 04:54:00,53.1,44.3,29.93,North,357,8.7,10.5,72,0.00,,CLR,0.00,VWS V14.01,2013-04-23 09:54:00,
2013-04-23 04:55:00,53.1,44.3,29.93,North,357,12.8,12.8,72,0.00,,CLR,0.00,VWS V14.01,2013-04-23 09:55:00,
2013-04-23 04:56:00,53.1,44.3,29.93,NNW,343,8.7,12.8,72,0.00,,CLR,0.00,VWS V14.01,2013-04-23 09:56:00,
2013-04-23 04:59:00,53.1,44.3,29.93,NNW,342,12.3,15.4,72,0.00,,CLR,0.00,VWS V14.01,2013-04-23 09:59:00,
2013-04-23 05:00:00,53.1,44.3,29.93,NNW,333,11.0,15.4,72,0.00,,CLR,0.00,VWS V14.01,2013-04-23 10:00:00,
2013-04-23 05:01:00,53.1,44.3,29.93,North,353,9.2,11.0,72,0.00,,CLR,0.00,VWS V14.01,2013-04-23 10:01:00,
2013-04-23 05:04:00,52.9,44.8,29.93,NNW,346,8.3,8.3,74,0.00,,CLR,0.00,VWS V14.01,2013-04-23 10:04:00,
2013-04-23 05:05:00,52.9,44.8,29.93,North,357,10.1,10.1,74,0.00,,CLR,0.00,VWS V14.01,2013-04-23 10:05:00,
2013-04-23 05:07:00,52.9,44.8,29.93,North,0,11.0,11.0,74,0.00,,CLR,0.00,VWS V14.01,2013-04-23 10:07:00,
2013-04-23 05:10:00,52.9,44.8,29.93,NNW,341,10.5,12.8,74,0.00,,CLR,0.00,VWS V14.01,2013-04-23 10:10:00,
2013-04-23 05:11:00,52.9,44.8,29.93,North,5,11.0,12.8,74,0.00,,CLR,0.00,VWS V14.01,2013-04-23 10:11:00,
2013-04-23 05:12:00,52.9,44.8,29.93,North,353,17.9,17.9,74,0.00,,CLR,0.00,VWS V14.01,2013-04-23 10:12:00,
2013-04-23 05:16:00,52.9,44.8,29.93,NNW,341,9.2,15.4,74,0.00,,CLR,0.00,VWS V14.01,2013-04-23 10:16:00,
2013-04-23 05:17:00,52.9,44.8,29.93,NNW,342,12.3,12.3,74,0.00,,CLR,0.00,VWS V14.01,2013-04-23 10:17:00,
2013-04-23 05:18:00,52.9,44.8,29.93,NNW,342,12.8,18.3,74,0.00,,CLR,0.00,VWS V14.01,2013-04-23 10:18:00,
2013-04-23 05:22:00,52.7,45.4,29.93,NNE,12,17.4,17.4,76,0.00,,CLR,0.00,VWS V14.01,2013-04-23 10:22:00,
2013-04-23 05:23:00,52.7,45.4,29.93,North,357,14.5,17.4,76,0.00,,CLR,0.00,VWS V14.01,2013-04-23 10:23:00,
2013-04-23 05:24:00,52.7,45.4,29.93,North,1,20.1,20.1,76,0.00,,CLR,0.00,VWS V14.01,2013-04-23 10:24:00,
2013-04-23 05:27:00,52.5,45.9,29.93,North,0,13.2,14.5,78,0.00,,CLR,0.00,VWS V14.01,2013-04-23 10:27:00,
2013-04-23 05:28:00,52.5,45.9,29.93,NNW,331,12.8,13.6,78,0.00,,CLR,0.00,VWS V14.01,2013-04-23 10:28:00,
2013-04-23 05:29:00,52.5,45.9,29.93,North,3,13.2,15.0,78,0.00,,CLR,0.00,VWS V14.01,2013-04-23 10:29:00,
2013-04-23 05:30:00,52.5,45.9,29.93,North,357,15.0,15.0,78,0.00,,CLR,0.00,VWS V14.01,2013-04-23 10:30:00,
2013-04-23 05:33:00,52.3,45.7,29.93,North,353,11.0,12.8,78,0.00,,CLR,0.00,VWS V14.01,2013-04-23 10:33:00,
2013-04-23 05:34:00,52.3,45.7,29.93,NNW,344,8.7,12.8,78,0.00,,CLR,0.00,VWS V14.01,2013-04-23 10:34:00,
2013-04-23 05:35:00,52.3,45.7,29.93,North,353,15.4,15.4,78,0.00,,CLR,0.00,VWS V14.01,2013-04-23 10:35:00,
2013-04-23 05:38:00,52.3,45.7,29.93,NNW,332,13.2,19.7,78,0.00,,CLR,0.00,VWS V14.01,2013-04-23 10:38:00,
2013-04-23 05:39:00,52.3,45.7,29.93,North,353,15.4,19.7,78,0.00,,CLR,0.00,VWS V14.01,2013-04-23 10:39:00,
2013-04-23 05:40:00,52.3,45.7,29.93,North,9,10.5,15.4,78,0.00,,CLR,0.00,VWS V14.01,2013-04-23 10:40:00,
2013-04-23 05:41:00,52.3,46.4,29.93,North,353,15.4,19.2,80,0.00,,CLR,0.00,VWS V14.01,2013-04-23 10:41:00,
2013-04-23 05:44:00,52.2,46.2,29.93,North,353,17.4,17.4,80,0.00,,CLR,0.00,VWS V14.01,2013-04-23 10:44:00,
2013-04-23 05:45:00,52.0,45.3,29.93,North,353,22.8,22.8,78,0.00,,CLR,0.00,VWS V14.01,2013-04-23 10:45:00,
2013-04-23 05:46:00,51.6,45.7,29.93,NW,307,14.5,22.8,80,0.00,,CLR,0.00,VWS V14.01,2013-04-23 10:46:00,
2013-04-23 05:47:00,51.6,45.7,29.93,NW,320,17.0,22.8,80,0.00,,CLR,0.00,VWS V14.01,2013-04-23 10:47:00,
2013-04-23 05:49:00,51.3,44.6,29.93,NNW,337,13.6,17.9,78,0.00,,CLR,0.00,VWS V14.01,2013-04-23 10:49:00,
2013-04-23 05:50:00,50.9,45.0,29.93,NNW,344,19.7,19.7,80,0.00,,CLR,0.00,VWS V14.01,2013-04-23 10:50:00,
2013-04-23 05:52:00,50.4,43.8,29.93,NNW,332,15.4,15.4,78,0.00,,CLR,0.00,VWS V14.01,2013-04-23 10:52:00,
2013-04-23 05:54:00,50.0,43.4,29.93,North,353,17.4,17.4,78,0.00,,CLR,0.00,VWS V14.01,2013-04-23 10:54:00,
2013-04-23 05:55:00,49.8,43.2,29.93,North,0,16.3,18.8,78,0.00,,CLR,0.00,VWS V14.01,2013-04-23 10:55:00,
2013-04-23 05:57:00,49.5,42.9,29.93,North,1,13.6,13.6,78,0.00,,CLR,0.00,VWS V14.01,2013-04-23 10:57:00,
2013-04-23 06:00:00,48.9,41.7,29.93,NNW,333,11.4,14.5,76,0.00,,CLR,0.00,VWS V14.01,2013-04-23 11:00:00,
2013-04-23 06:01:00,48.7,42.2,29.93,North,353,12.8,12.8,78,0.00,,CLR,0.00,VWS V14.01,2013-04-23 11:01:00,
2013-04-23 06:02:00,48.6,42.0,29.93,NW,310,13.2,13.2,78,0.00,,CLR,0.00,VWS V14.01,2013-04-23 11:02:00,
2013-04-23 06:03:00,48.6,42.0,29.93,NNW,330,14.5,14.5,78,0.00,,CLR,0.00,VWS V14.01,2013-04-23 11:03:00,
2013-04-23 06:06:00,47.7,41.2,29.93,NNW,343,11.9,16.3,78,0.00,,CLR,0.00,VWS V14.01,2013-04-23 11:06:00,
2013-04-23 06:07:00,47.5,41.0,29.93,NNW,338,15.4,18.3,78,0.00,,CLR,0.00,VWS V14.01,2013-04-23 11:07:00,
2013-04-23 06:09:00,47.3,40.8,29.93,NNW,346,10.1,11.4,78,0.00,,CLR,0.00,VWS V14.01,2013-04-23 11:09:00,
2013-04-23 06:11:00,46.9,41.1,29.96,North,357,16.3,16.3,80,0.00,,CLR,0.00,VWS V14.01,2013-04-23 11:11:00,
2013-04-23 06:12:00,46.9,41.1,29.96,North,357,14.5,14.5,80,0.00,,CLR,0.00,VWS V14.01,2013-04-23 11:12:00,
2013-04-23 06:13:00,46.9,41.1,29.96,North,8,12.3,15.4,80,0.00,,CLR,0.00,VWS V14.01,2013-04-23 11:13:00,
2013-04-23 06:15:00,46.8,41.6,29.96,North,349,12.8,13.2,82,0.00,,CLR,0.00,VWS V14.01,2013-04-23 11:15:00,
2013-04-23 06:17:00,46.6,41.4,29.96,North,357,17.4,17.4,82,0.00,,CLR,0.00,VWS V14.01,2013-04-23 11:17:00,
2013-04-23 06:18:00,46.4,41.2,29.96,North,353,16.8,19.7,82,0.00,,CLR,0.00,VWS V14.01,2013-04-23 11:18:00,
2013-04-23 06:21:00,46.2,41.7,29.96,NNW,336,12.8,15.4,84,0.00,,CLR,0.00,VWS V14.01,2013-04-23 11:21:00,
2013-04-23 06:23:00,46.0,41.5,29.96,NNW,340,15.4,17.4,84,0.00,,CLR,0.00,VWS V14.01,2013-04-23 11:23:00,
2013-04-23 06:24:00,45.9,40.7,29.96,NNW,337,15.9,15.9,82,0.00,,CLR,0.00,VWS V14.01,2013-04-23 11:24:00,
2013-04-23 06:25:00,45.7,40.5,29.96,NNW,331,17.0,17.0,82,0.00,,CLR,0.00,VWS V14.01,2013-04-23 11:25:00,
2013-04-23 06:28:00,45.5,41.6,29.96,NNW,336,15.9,15.9,86,0.00,,CLR,0.00,VWS V14.01,2013-04-23 11:28:00,
2013-04-23 06:30:00,45.3,40.8,29.96,North,1,13.2,15.9,84,0.00,,CLR,0.00,VWS V14.01,2013-04-23 11:30:00,
2013-04-23 06:31:00,45.1,41.2,29.96,NNW,331,15.4,15.4,86,0.00,,CLR,0.00,VWS V14.01,2013-04-23 11:31:00,
2013-04-23 06:33:00,45.1,41.2,29.96,NW,324,10.5,10.5,86,0.00,,CLR,0.00,VWS V14.01,2013-04-23 11:33:00,
2013-04-23 06:34:00,45.1,41.2,29.96,NNW,332,12.8,14.5,86,0.00,,CLR,0.00,VWS V14.01,2013-04-23 11:34:00,
2013-04-23 06:35:00,45.1,41.2,29.96,NNW,343,12.8,15.4,86,0.00,,CLR,0.00,VWS V14.01,2013-04-23 11:35:00,
2013-04-23 06:36:00,45.0,41.0,29.96,North,9,10.5,15.4,86,0.00,,CLR,0.00,VWS V14.01,2013-04-23 11:36:00,
2013-04-23 06:38:00,45.0,41.0,29.96,North,0,17.0,17.0,86,0.00,,CLR,0.00,VWS V14.01,2013-04-23 11:38:00,
2013-04-23 06:41:00,45.0,41.6,29.96,NNW,338,11.4,13.2,88,0.00,,CLR,0.00,VWS V14.01,2013-04-23 11:41:00,
2013-04-23 06:42:00,45.0,42.8,29.96,North,350,13.2,13.2,92,0.00,,CLR,0.00,VWS V14.01,2013-04-23 11:42:00,
2013-04-23 06:43:00,44.8,42.6,29.96,North,0,13.2,15.4,92,0.00,,CLR,0.00,VWS V14.01,2013-04-23 11:43:00,
2013-04-23 06:46:00,44.8,42.6,29.96,NNW,332,19.2,19.2,92,0.00,,CLR,0.00,VWS V14.01,2013-04-23 11:46:00,
2013-04-23 06:47:00,44.6,43.0,29.96,NNW,341,12.8,19.7,94,0.00,,CLR,0.00,VWS V14.01,2013-04-23 11:47:00,
2013-04-23 06:49:00,44.4,43.9,29.96,NNW,341,13.2,15.9,98,0.00,,CLR,0.00,VWS V14.01,2013-04-23 11:49:00,
2013-04-23 06:52:00,44.2,44.2,29.96,NNE,12,13.2,15.0,100,0.00,,CLR,0.00,VWS V14.01,2013-04-23 11:52:00,
2013-04-23 06:54:00,44.1,44.1,29.96,NNW,328,12.8,15.4,100,0.00,,CLR,0.00,VWS V14.01,2013-04-23 11:54:00,
2013-04-23 06:57:00,44.1,44.1,29.96,NNW,343,15.0,16.8,100,0.00,,CLR,0.00,VWS V14.01,2013-04-23 11:57:00,
2013-04-23 06:58:00,43.9,43.9,29.96,North,357,17.4,17.4,100,0.00,,CLR,0.00,VWS V14.01,2013-04-23 11:58:00,
2013-04-23 06:59:00,43.9,43.9,29.96,North,357,19.2,19.2,100,0.00,,CLR,0.00,VWS V14.01,2013-04-23 11:59:00,
2013-04-23 07:00:00,43.9,43.9,29.96,North,1,17.4,19.2,100,0.00,,CLR,0.00,VWS V14.01,2013-04-23 12:00:00,
2013-04-23 07:02:00,43.7,43.7,29.96,NNW,329,13.2,15.4,100,0.00,,CLR,0.00,VWS V14.01,2013-04-23 12:02:00,
2013-04-23 07:04:00,43.7,43.7,29.96,NNW,328,10.5,17.4,100,0.00,,CLR,0.00,VWS V14.01,2013-04-23 12:04:00,
2013-04-23 07:05:00,43.5,43.5,29.96,NNW,346,13.2,14.5,100,0.00,,CLR,0.00,VWS V14.01,2013-04-23 12:05:00,
2013-04-23 07:06:00,43.5,43.5,29.96,NNW,346,15.0,15.0,100,0.00,,CLR,0.00,VWS V14.01,2013-04-23 12:06:00,
2013-04-23 07:07:00,43.7,43.7,29.96,NNW,342,15.4,15.4,100,0.00,,CLR,0.00,VWS V14.01,2013-04-23 12:07:00,
2013-04-23 07:08:00,43.5,43.5,29.96,NW,326,15.0,15.0,100,0.00,,CLR,0.00,VWS V14.01,2013-04-23 12:08:00,
2013-04-23 07:10:00,43.5,43.5,29.99,NNW,346,16.8,16.8,100,0.00,,CLR,0.00,VWS V14.01,2013-04-23 12:10:00,
2013-04-23 07:11:00,43.5,43.5,29.99,North,0,18.3,18.3,100,0.00,,CLR,0.00,VWS V14.01,2013-04-23 12:11:00,
2013-04-23 07:13:00,43.5,43.5,29.99,NNW,331,10.5,15.0,100,0.00,,CLR,0.00,VWS V14.01,2013-04-23 12:13:00,
2013-04-23 07:14:00,43.5,43.5,29.99,NNW,340,12.8,12.8,100,0.00,,CLR,0.00,VWS V14.01,2013-04-23 12:14:00,
2013-04-23 07:16:00,43.5,43.5,29.99,NNW,335,12.8,12.8,100,0.00,,CLR,0.00,VWS V14.01,2013-04-23 12:16:00,
2013-04-23 07:18:00,43.5,43.5,29.99,NNW,329,10.1,10.1,100,0.00,,CLR,0.00,VWS V14.01,2013-04-23 12:18:00,
2013-04-23 07:19:00,43.5,43.5,29.99,NNW,342,11.4,15.4,100,0.00,,CLR,0.00,VWS V14.01,2013-04-23 12:19:00,
2013-04-23 07:22:00,43.3,43.3,29.99,NW,323,13.2,16.3,100,0.00,,CLR,0.00,VWS V14.01,2013-04-23 12:22:00,
2013-04-23 07:23:00,43.3,43.3,29.99,NW,326,16.3,16.3,100,0.04,,CLR,0.04,VWS V14.01,2013-04-23 12:23:00,
2013-04-23 07:24:00,43.3,43.3,29.99,North,0,12.8,12.8,100,0.04,,CLR,0.04,VWS V14.01,2013-04-23 12:24:00,
2013-04-23 07:25:00,43.3,43.3,29.99,NNW,335,17.0,17.0,100,0.04,,CLR,0.04,VWS V14.01,2013-04-23 12:25:00,
2013-04-23 07:27:00,43.2,43.2,29.99,NNW,338,12.3,12.3,100,0.04,,CLR,0.04,VWS V14.01,2013-04-23 12:27:00,
2013-04-23 07:28:00,43.2,43.2,29.99,NNW,329,14.1,17.4,100,0.04,,CLR,0.04,VWS V14.01,2013-04-23 12:28:00,
2013-04-23 07:29:00,43.2,43.2,29.99,NNW,344,17.0,19.7,100,0.04,,CLR,0.04,VWS V14.01,2013-04-23 12:29:00,
2013-04-23 07:30:00,43.0,43.0,29.99,NNW,331,13.2,14.1,100,0.04,,CLR,0.04,VWS V14.01,2013-04-23 12:30:00,
2013-04-23 07:31:00,43.0,43.0,29.99,North,353,14.1,15.4,100,0.04,,CLR,0.04,VWS V14.01,2013-04-23 12:31:00,
2013-04-23 07:33:00,42.4,42.4,29.99,NW,323,15.0,15.9,100,0.04,,CLR,0.04,VWS V14.01,2013-04-23 12:33:00,
2013-04-23 07:34:00,42.1,42.1,29.99,North,350,18.3,19.7,100,0.04,,CLR,0.04,VWS V14.01,2013-04-23 12:34:00,
2013-04-23 07:36:00,42.1,42.1,29.99,NNW,337,16.3,16.3,100,0.04,,CLR,0.04,VWS V14.01,2013-04-23 12:36:00,
2013-04-23 07:38:00,41.9,41.9,29.99,NNW,340,15.0,17.4,100,0.04,,CLR,0.04,VWS V14.01,2013-04-23 12:38:00,
2013-04-23 07:39:00,41.9,41.9,29.99,North,5,13.2,17.4,100,0.04,,CLR,0.04,VWS V14.01,2013-04-23 12:39:00,
2013-04-23 07:40:00,41.9,41.9,29.96,NNW,342,15.4,15.4,100,0.04,,CLR,0.04,VWS V14.01,2013-04-23 12:40:00,
2013-04-23 07:41:00,41.9,41.9,29.96,NNW,337,15.9,15.9,100,0.04,,CLR,0.04,VWS V14.01,2013-04-23 12:41:00,
2013-04-23 07:43:00,41.7,41.7,29.96,NNW,346,15.4,15.4,100,0.04,,CLR,0.04,VWS V14.01,2013-04-23 12:43:00,
2013-04-23 07:44:00,41.7,41.7,29.96,NNW,337,17.0,17.0,100,0.04,,CLR,0.04,VWS V14.01,2013-04-23 12:44:00,
2013-04-23 07:45:00,41.7,41.7,29.96,North,353,15.4,15.4,100,0.04,,CLR,0.04,VWS V14.01,2013-04-23 12:45:00,
2013-04-23 07:46:00,41.7,41.7,29.96,NNW,348,10.5,15.4,100,0.04,,CLR,0.04,VWS V14.01,2013-04-23 12:46:00,
2013-04-23 07:48:00,41.7,41.7,29.96,NNW,337,12.8,13.2,100,0.04,,CLR,0.04,VWS V14.01,2013-04-23 12:48:00,
2013-04-23 07:49:00,41.7,41.7,29.96,North,350,11.0,12.8,100,0.04,,CLR,0.04,VWS V14.01,2013-04-23 12:49:00,
2013-04-23 07:50:00,41.7,41.7,29.96,North,0,11.0,14.1,100,0.08,,CLR,0.08,VWS V14.01,2013-04-23 12:50:00,
2013-04-23 07:51:00,41.7,41.7,29.96,NNW,344,13.2,14.1,100,0.08,,CLR,0.08,VWS V14.01,2013-04-23 12:51:00,
2013-04-23 07:54:00,41.7,41.7,29.99,North,1,12.8,16.8,100,0.08,,CLR,0.08,VWS V14.01,2013-04-23 12:54:00,
2013-04-23 07:55:00,41.7,41.7,29.99,North,353,12.8,12.8,100,0.08,,CLR,0.08,VWS V14.01,2013-04-23 12:55:00,
2013-04-23 07:56:00,41.7,41.7,29.99,NNW,344,8.3,12.8,100,0.08,,CLR,0.08,VWS V14.01,2013-04-23 12:56:00,
2013-04-23 07:59:00,41.7,41.7,29.99,NNW,333,10.5,12.8,100,0.08,,CLR,0.08,VWS V14.01,2013-04-23 12:59:00,
2013-04-23 08:00:00,41.5,41.5,29.99,NNW,341,12.3,12.3,100,0.08,,CLR,0.08,VWS V14.01,2013-04-23 13:00:00,
2013-04-23 08:01:00,41.7,41.7,29.99,NNW,340,12.3,12.8,100,0.08,,CLR,0.08,VWS V14.01,2013-04-23 13:01:00,
2013-04-23 08:02:00,41.5,41.5,29.99,NNW,335,11.0,12.3,100,0.08,,CLR,0.08,VWS V14.01,2013-04-23 13:02:00,
2013-04-23 08:05:00,41.5,41.5,29.99,NNW,337,10.5,13.6,100,0.08,,CLR,0.08,VWS V14.01,2013-04-23 13:05:00,
2013-04-23 08:06:00,41.5,41.5,29.99,North,0,13.2,15.4,100,0.08,,CLR,0.08,VWS V14.01,2013-04-23 13:06:00,
2013-04-23 08:07:00,41.4,41.4,29.99,NNW,343,15.0,16.3,100,0.08,,CLR,0.08,VWS V14.01,2013-04-23 13:07:00,
2013-04-23 08:10:00,41.2,41.2,29.99,North,0,14.1,14.1,100,0.08,,CLR,0.08,VWS V14.01,2013-04-23 13:10:00,
2013-04-23 08:11:00,41.2,41.2,29.99,NNE,14,17.0,17.0,100,0.08,,CLR,0.08,VWS V14.01,2013-04-23 13:11:00,
2013-04-23 08:12:00,41.2,41.2,29.99,North,0,16.3,16.3,100,0.08,,CLR,0.08,VWS V14.01,2013-04-23 13:12:00,
2013-04-23 08:13:00,41.2,41.2,29.99,NNW,337,11.0,16.3,100,0.08,,CLR,0.08,VWS V14.01,2013-04-23 13:13:00,
2013-04-23 08:15:00,41.2,41.2,29.99,NNW,343,12.3,12.3,100,0.08,,CLR,0.08,VWS V14.01,2013-04-23 13:15:00,
2013-04-23 08:16:00,41.2,41.2,29.99,NW,319,12.8,12.8,100,0.08,,CLR,0.08,VWS V14.01,2013-04-23 13:16:00,
2013-04-23 08:18:00,41.2,41.2,29.99,North,8,13.2,13.2,100,0.08,,CLR,0.08,VWS V14.01,2013-04-23 13:18:00,
2013-04-23 08:20:00,41.2,41.2,29.99,North,357,12.8,13.2,100,0.08,,CLR,0.08,VWS V14.01,2013-04-23 13:20:00,
2013-04-23 08:23:00,41.0,41.0,29.99,NNW,331,11.4,13.2,100,0.04,,CLR,0.08,VWS V14.01,2013-04-23 13:23:00,
2013-04-23 08:24:00,41.0,41.0,29.99,NNW,330,8.7,10.5,100,0.04,,CLR,0.08,VWS V14.01,2013-04-23 13:24:00,
2013-04-23 08:25:00,41.0,41.0,30.02,North,353,13.6,13.6,100,0.08,,CLR,0.12,VWS V14.01,2013-04-23 13:25:00,
2013-04-23 08:28:00,40.8,40.8,30.02,NNW,339,13.2,13.2,100,0.08,,CLR,0.12,VWS V14.01,2013-04-23 13:28:00,
2013-04-23 08:29:00,40.6,40.6,30.02,NNW,335,12.3,17.0,100,0.08,,CLR,0.12,VWS V14.01,2013-04-23 13:29:00,
2013-04-23 08:31:00,40.6,40.6,30.02,NNW,340,15.4,15.4,100,0.08,,CLR,0.12,VWS V14.01,2013-04-23 13:31:00,
2013-04-23 08:33:00,40.5,40.5,30.02,North,353,11.9,11.9,100,0.08,,CLR,0.12,VWS V14.01,2013-04-23 13:33:00,
2013-04-23 08:35:00,40.5,40.5,30.02,NW,326,11.0,13.6,100,0.08,,CLR,0.12,VWS V14.01,2013-04-23 13:35:00,
2013-04-23 08:36:00,40.5,40.5,30.02,North,6,13.2,15.0,100,0.08,,CLR,0.12,VWS V14.01,2013-04-23 13:36:00,
2013-04-23 08:37:00,40.6,40.6,30.02,North,353,13.2,13.2,100,0.08,,CLR,0.12,VWS V14.01,2013-04-23 13:37:00,
2013-04-23 08:38:00,40.5,40.5,30.02,NNW,336,12.3,13.2,100,0.08,,CLR,0.12,VWS V14.01,2013-04-23 13:38:00,
2013-04-23 08:40:00,40.6,40.6,30.02,North,357,10.5,10.5,100,0.08,,CLR,0.12,VWS V14.01,2013-04-23 13:40:00,
2013-04-23 08:41:00,40.6,40.6,30.02,North,353,14.1,14.1,100,0.08,,CLR,0.12,VWS V14.01,2013-04-23 13:41:00,
2013-04-23 08:42:00,40.5,40.5,30.02,North,353,10.5,14.1,100,0.08,,CLR,0.12,VWS V14.01,2013-04-23 13:42:00,
2013-04-23 08:43:00,40.6,40.6,30.02,NNW,344,10.5,12.8,100,0.08,,CLR,0.12,VWS V14.01,2013-04-23 13:43:00,
2013-04-23 08:44:00,40.6,40.6,30.02,NNE,12,13.2,13.2,100,0.08,,CLR,0.12,VWS V14.01,2013-04-23 13:44:00,
2013-04-23 08:45:00,40.6,40.6,30.02,North,0,10.1,11.0,100,0.08,,CLR,0.12,VWS V14.01,2013-04-23 13:45:00,
2013-04-23 08:46:00,40.6,40.6,30.02,NNW,337,12.8,12.8,100,0.08,,CLR,0.12,VWS V14.01,2013-04-23 13:46:00,
2013-04-23 08:47:00,40.6,40.6,30.02,NNW,337,10.5,12.8,100,0.08,,CLR,0.12,VWS V14.01,2013-04-23 13:47:00,
2013-04-23 08:48:00,40.6,40.6,30.02,North,357,12.8,12.8,100,0.08,,CLR,0.12,VWS V14.01,2013-04-23 13:48:00,
2013-04-23 08:49:00,40.6,40.6,30.02,NNW,329,9.6,15.0,100,0.08,,CLR,0.12,VWS V14.01,2013-04-23 13:49:00,
2013-04-23 08:50:00,40.6,40.6,30.02,North,0,13.6,13.6,100,0.04,,CLR,0.12,VWS V14.01,2013-04-23 13:50:00,
2013-04-23 08:52:00,40.6,40.6,30.02,North,0,10.5,10.5,100,0.04,,CLR,0.12,VWS V14.01,2013-04-23 13:52:00,
2013-04-23 08:54:00,40.6,40.6,30.02,North,357,10.1,10.1,100,0.04,,CLR,0.12,VWS V14.01,2013-04-23 13:54:00,
2013-04-23 08:56:00,41.0,41.0,29.99,NNE,12,11.0,12.8,100,0.04,,CLR,0.12,VWS V14.01,2013-04-23 13:56:00,
2013-04-23 08:57:00,41.0,41.0,29.99,North,5,15.0,15.0,100,0.04,,CLR,0.12,VWS V14.01,2013-04-23 13:57:00,
2013-04-23 09:00:00,41.0,41.0,29.99,North,357,12.8,12.8,100,0.04,,CLR,0.12,VWS V14.01,2013-04-23 14:00:00,
2013-04-23 09:01:00,41.2,41.2,29.99,North,0,11.0,11.0,100,0.04,,CLR,0.12,VWS V14.01,2013-04-23 14:01:00,
2013-04-23 09:02:00,41.2,41.2,29.99,NNW,337,10.1,11.0,100,0.04,,CLR,0.12,VWS V14.01,2013-04-23 14:02:00,
2013-04-23 09:03:00,41.2,41.2,29.99,North,0,13.2,13.2,100,0.04,,CLR,0.12,VWS V14.01,2013-04-23 14:03:00,
2013-04-23 09:05:00,41.2,41.2,29.99,North,353,11.4,12.8,100,0.04,,CLR,0.12,VWS V14.01,2013-04-23 14:05:00,
2013-04-23 09:06:00,41.2,41.2,29.99,North,7,10.1,10.5,100,0.04,,CLR,0.12,VWS V14.01,2013-04-23 14:06:00,
2013-04-23 09:07:00,41.2,41.2,29.99,NNW,335,10.1,10.1,100,0.04,,CLR,0.12,VWS V14.01,2013-04-23 14:07:00,
2013-04-23 09:08:00,41.4,41.4,29.99,North,353,7.6,7.6,100,0.04,,CLR,0.12,VWS V14.01,2013-04-23 14:08:00,
2013-04-23 09:10:00,41.4,41.4,29.99,North,357,12.8,12.8,100,0.04,,CLR,0.12,VWS V14.01,2013-04-23 14:10:00,
2013-04-23 09:13:00,41.2,41.2,29.99,NNE,12,12.8,16.3,100,0.04,,CLR,0.12,VWS V14.01,2013-04-23 14:13:00,
2013-04-23 09:14:00,41.4,41.4,29.99,North,10,11.0,13.2,100,0.04,,CLR,0.12,VWS V14.01,2013-04-23 14:14:00,
2013-04-23 09:16:00,41.2,41.2,29.99,NNE,15,13.2,13.2,100,0.04,,CLR,0.12,VWS V14.01,2013-04-23 14:16:00,
2013-04-23 09:18:00,41.4,41.4,29.99,North,357,10.5,12.8,100,0.04,,CLR,0.12,VWS V14.01,2013-04-23 14:18:00,
2013-04-23 09:20:00,41.5,41.5,29.99,North,9,11.0,11.0,100,0.04,,CLR,0.12,VWS V14.01,2013-04-23 14:20:00,
2013-04-23 09:21:00,41.4,41.4,29.99,NNE,14,13.2,15.4,100,0.04,,CLR,0.12,VWS V14.01,2013-04-23 14:21:00,
2013-04-23 09:23:00,41.5,41.5,29.99,NNW,345,9.6,12.8,100,0.04,,CLR,0.12,VWS V14.01,2013-04-23 14:23:00,
2013-04-23 09:25:00,41.5,41.5,29.99,North,353,12.8,12.8,100,0.00,,CLR,0.12,VWS V14.01,2013-04-23 14:25:00,
2013-04-23 09:26:00,41.5,41.5,29.99,North,8,15.0,15.0,100,0.00,,CLR,0.12,VWS V14.01,2013-04-23 14:26:00,
2013-04-23 09:27:00,41.5,41.5,29.99,North,2,12.8,13.2,100,0.00,,CLR,0.12,VWS V14.01,2013-04-23 14:27:00,
2013-04-23 09:28:00,41.5,41.5,29.99,North,357,12.8,12.8,100,0.00,,CLR,0.12,VWS V14.01,2013-04-23 14:28:00,
2013-04-23 09:30:00,41.4,41.4,29.99,North,353,12.3,15.0,100,0.00,,CLR,0.12,VWS V14.01,2013-04-23 14:30:00,
2013-04-23 09:32:00,41.4,41.4,29.99,North,357,12.8,13.2,100,0.00,,CLR,0.12,VWS V14.01,2013-04-23 14:32:00,
2013-04-23 09:33:00,41.4,41.4,29.99,North,350,15.4,15.4,100,0.00,,CLR,0.12,VWS V14.01,2013-04-23 14:33:00,
2013-04-23 09:34:00,41.4,41.4,29.99,North,10,13.2,13.2,100,0.00,,CLR,0.12,VWS V14.01,2013-04-23 14:34:00,
2013-04-23 09:36:00,41.5,41.5,29.99,NNW,348,13.2,15.0,100,0.00,,CLR,0.12,VWS V14.01,2013-04-23 14:36:00,
2013-04-23 09:38:00,41.2,41.2,29.99,North,11,10.1,13.2,100,0.00,,CLR,0.12,VWS V14.01,2013-04-23 14:38:00,
2013-04-23 09:39:00,41.2,41.2,29.99,North,0,11.0,11.0,100,0.00,,CLR,0.12,VWS V14.01,2013-04-23 14:39:00,
2013-04-23 09:41:00,41.0,41.0,29.99,North,3,13.2,13.2,100,0.00,,CLR,0.12,VWS V14.01,2013-04-23 14:41:00,
2013-04-23 09:42:00,41.0,41.0,29.99,NNE,18,12.8,12.8,100,0.00,,CLR,0.12,VWS V14.01,2013-04-23 14:42:00,
2013-04-23 09:43:00,41.0,41.0,29.99,NNE,16,13.2,13.2,100,0.00,,CLR,0.12,VWS V14.01,2013-04-23 14:43:00,
2013-04-23 09:44:00,41.0,41.0,29.99,North,1,11.0,11.0,100,0.00,,CLR,0.12,VWS V14.01,2013-04-23 14:44:00,
2013-04-23 09:45:00,41.0,41.0,29.99,NNE,16,13.2,13.2,100,0.00,,CLR,0.12,VWS V14.01,2013-04-23 14:45:00,
2013-04-23 09:47:00,41.2,41.2,29.99,North,0,12.8,12.8,100,0.00,,CLR,0.12,VWS V14.01,2013-04-23 14:47:00,
2013-04-23 09:48:00,41.0,41.0,29.99,North,0,13.2,13.2,100,0.00,,CLR,0.12,VWS V14.01,2013-04-23 14:48:00,
2013-04-23 09:50:00,41.0,41.0,29.99,NW,326,9.2,9.2,100,0.00,,CLR,0.12,VWS V14.01,2013-04-23 14:50:00,
2013-04-23 09:53:00,40.6,40.6,29.99,NW,310,7.6,10.5,100,0.00,,CLR,0.12,VWS V14.01,2013-04-23 14:53:00,
2013-04-23 09:54:00,40.6,40.6,29.99,NNW,328,11.0,11.0,100,0.00,,CLR,0.12,VWS V14.01,2013-04-23 14:54:00,
2013-04-23 09:55:00,40.6,40.6,30.02,North,353,13.2,13.2,100,0.00,,CLR,0.00,VWS V14.01,2013-04-23 14:55:00,
2013-04-23 09:58:00,40.6,40.6,30.02,NNW,341,10.1,12.3,100,0.00,,CLR,0.12,VWS V14.01,2013-04-23 14:58:00,
2013-04-23 09:59:00,40.6,40.6,30.02,NNW,345,9.2,9.2,100,0.00,,CLR,0.12,VWS V14.01,2013-04-23 14:59:00,
2013-04-23 10:01:00,40.5,40.5,30.02,NNW,330,11.0,11.4,100,0.00,,CLR,0.12,VWS V14.01,2013-04-23 15:01:00,
2013-04-23 10:03:00,40.5,40.5,30.02,NNW,334,11.0,13.2,100,0.00,,CLR,0.12,VWS V14.01,2013-04-23 15:03:00,
2013-04-23 10:04:00,40.5,40.5,30.02,NNW,334,10.5,11.0,100,0.00,,CLR,0.12,VWS V14.01,2013-04-23 15:04:00,
2013-04-23 10:05:00,40.5,40.5,30.02,North,353,8.3,11.0,100,0.00,,CLR,0.12,VWS V14.01,2013-04-23 15:05:00,
2013-04-23 10:06:00,40.5,40.5,30.02,NNW,331,11.0,11.0,100,0.00,,CLR,0.12,VWS V14.01,2013-04-23 15:06:00,
2013-04-23 10:07:00,40.5,40.5,30.02,NNW,340,12.8,13.6,100,0.00,,CLR,0.12,VWS V14.01,2013-04-23 15:07:00,
2013-04-23 10:09:00,40.5,40.5,29.99,NNW,343,10.1,10.5,100,0.00,,CLR,0.12,VWS V14.01,2013-04-23 15:09:00,
2013-04-23 10:10:00,40.5,40.5,29.99,NNW,332,10.5,10.5,100,0.00,,CLR,0.12,VWS V14.01,2013-04-23 15:10:00,
2013-04-23 10:11:00,40.5,40.5,29.99,NNW,334,12.3,12.3,100,0.00,,CLR,0.12,VWS V14.01,2013-04-23 15:11:00,
2013-04-23 10:13:00,40.5,40.5,29.99,NNW,331,12.8,12.8,100,0.00,,CLR,0.12,VWS V14.01,2013-04-23 15:13:00,
2013-04-23 10:14:00,40.5,40.5,29.99,NNW,343,13.2,13.2,100,0.00,,CLR,0.12,VWS V14.01,2013-04-23 15:14:00,
2013-04-23 10:15:00,40.3,40.3,29.99,North,353,11.0,12.3,100,0.00,,CLR,0.12,VWS V14.01,2013-04-23 15:15:00,
2013-04-23 10:16:00,40.5,40.5,29.99,NNW,346,10.1,12.8,100,0.00,,CLR,0.12,VWS V14.01,2013-04-23 15:16:00,
2013-04-23 10:17:00,40.5,40.5,29.99,North,0,13.2,13.2,100,0.00,,CLR,0.12,VWS V14.01,2013-04-23 15:17:00,
2013-04-23 10:20:00,40.5,40.5,29.99,North,0,10.1,10.1,100,0.00,,CLR,0.12,VWS V14.01,2013-04-23 15:20:00,
2013-04-23 10:22:00,40.3,40.3,29.99,NNW,343,12.8,13.2,100,0.00,,CLR,0.12,VWS V14.01,2013-04-23 15:22:00,
2013-04-23 10:23:00,40.3,40.3,29.99,NNW,332,10.5,13.2,100,0.00,,CLR,0.12,VWS V14.01,2013-04-23 15:23:00,
2013-04-23 10:26:00,39.9,39.9,30.02,NNW,335,10.5,11.9,100,0.00,,CLR,0.12,VWS V14.01,2013-04-23 15:26:00,
2013-04-23 10:27:00,39.9,39.9,30.02,North,0,11.9,11.9,100,0.00,,CLR,0.12,VWS V14.01,2013-04-23 15:27:00,
2013-04-23 10:28:00,39.9,39.9,30.02,North,349,10.5,10.5,100,0.00,,CLR,0.12,VWS V14.01,2013-04-23 15:28:00,
2013-04-23 10:31:00,39.9,39.9,30.02,North,357,8.1,8.3,100,0.00,,CLR,0.12,VWS V14.01,2013-04-23 15:31:00,
2013-04-23 10:32:00,39.9,39.9,30.02,North,3,8.3,9.6,100,0.00,,CLR,0.12,VWS V14.01,2013-04-23 15:32:00,
2013-04-23 10:33:00,39.9,39.9,30.02,North,0,10.5,11.9,100,0.00,,CLR,0.12,VWS V14.01,2013-04-23 15:33:00,
2013-04-23 10:34:00,40.1,40.1,30.02,North,353,11.4,11.4,100,0.00,,CLR,0.12,VWS V14.01,2013-04-23 15:34:00,
2013-04-23 10:37:00,40.3,40.3,30.02,NNW,342,10.1,10.1,100,0.00,,CLR,0.12,VWS V14.01,2013-04-23 15:37:00,
2013-04-23 10:38:00,40.3,40.3,30.02,North,357,13.6,13.6,100,0.00,,CLR,0.12,VWS V14.01,2013-04-23 15:38:00,
2013-04-23 10:39:00,40.3,40.3,30.02,North,353,13.2,13.6,100,0.00,,CLR,0.12,VWS V14.01,2013-04-23 15:39:00,
2013-04-23 10:40:00,40.3,40.3,30.02,North,6,11.0,11.0,100,0.00,,CLR,0.12,VWS V14.01,2013-04-23 15:40:00,
2013-04-23 10:43:00,40.1,40.1,30.02,North,353,9.6,9.6,100,0.04,,CLR,0.16,VWS V14.01,2013-04-23 15:43:00,
2013-04-23 10:44:00,40.1,40.1,30.02,NNW,335,15.0,15.0,100,0.04,,CLR,0.16,VWS V14.01,2013-04-23 15:44:00,
2013-04-23 10:45:00,40.1,40.1,30.02,North,353,15.4,15.4,100,0.04,,CLR,0.16,VWS V14.01,2013-04-23 15:45:00,
2013-04-23 10:48:00,39.9,39.9,30.02,NNW,340,11.0,13.2,100,0.04,,CLR,0.16,VWS V14.01,2013-04-23 15:48:00,
2013-04-23 10:50:00,39.9,39.9,30.02,North,353,12.8,12.8,100,0.04,,CLR,0.16,VWS V14.01,2013-04-23 15:50:00,
2013-04-23 10:51:00,39.9,39.9,30.02,NNW,345,10.5,10.5,100,0.04,,CLR,0.16,VWS V14.01,2013-04-23 15:51:00,
2013-04-23 10:54:00,39.7,39.7,30.02,NNW,329,14.5,14.5,100,0.04,,CLR,0.16,VWS V14.01,2013-04-23 15:54:00,
2013-04-23 10:55:00,39.7,39.7,30.02,North,353,12.8,13.2,100,0.04,,CLR,0.16,VWS V14.01,2013-04-23 15:55:00,
2013-04-23 10:56:00,39.7,39.7,30.02,North,4,12.8,16.3,100,0.04,,CLR,0.16,VWS V14.01,2013-04-23 15:56:00,
2013-04-23 10:59:00,39.7,39.7,30.02,North,357,17.9,17.9,100,0.04,,CLR,0.16,VWS V14.01,2013-04-23 15:59:00,
2013-04-23 11:00:00,39.7,39.7,30.02,NNW,343,14.1,14.1,100,0.08,,CLR,0.20,VWS V14.01,2013-04-23 16:00:00,
2013-04-23 11:01:00,39.7,39.7,30.02,NNE,15,17.0,17.0,100,0.08,,CLR,0.20,VWS V14.01,2013-04-23 16:01:00,
2013-04-23 11:02:00,39.7,39.7,30.02,North,353,18.3,18.3,100,0.08,,CLR,0.20,VWS V14.01,2013-04-23 16:02:00,
2013-04-23 11:04:00,39.7,39.7,30.02,North,357,15.0,15.4,100,0.08,,CLR,0.20,VWS V14.01,2013-04-23 16:04:00,
2013-04-23 11:05:00,39.7,39.7,30.02,North,353,12.3,15.9,100,0.08,,CLR,0.20,VWS V14.01,2013-04-23 16:05:00,
2013-04-23 11:06:00,39.7,39.7,30.02,North,3,11.0,11.0,100,0.08,,CLR,0.20,VWS V14.01,2013-04-23 16:06:00,
2013-04-23 11:07:00,39.7,39.7,30.02,North,350,12.8,12.8,100,0.08,,CLR,0.20,VWS V14.01,2013-04-23 16:07:00,
2013-04-23 11:11:00,39.4,39.4,30.02,North,0,13.2,17.4,100,0.08,,CLR,0.20,VWS V14.01,2013-04-23 16:11:00,
2013-04-23 11:12:00,39.2,39.2,30.02,NNW,338,15.4,16.8,100,0.08,,CLR,0.20,VWS V14.01,2013-04-23 16:12:00,
2013-04-23 11:13:00,39.2,39.2,30.02,NW,326,12.8,16.8,100,0.08,,CLR,0.20,VWS V14.01,2013-04-23 16:13:00,
2013-04-23 11:16:00,39.4,39.4,30.02,NNW,337,10.5,13.2,100,0.08,,CLR,0.20,VWS V14.01,2013-04-23 16:16:00,
2013-04-23 11:17:00,39.4,39.4,30.02,North,0,11.0,11.0,100,0.08,,CLR,0.20,VWS V14.01,2013-04-23 16:17:00,
2013-04-23 11:18:00,39.4,39.4,30.02,North,7,19.7,19.7,100,0.08,,CLR,0.20,VWS V14.01,2013-04-23 16:18:00,
2013-04-23 11:22:00,39.4,39.4,30.02,NNE,16,19.7,23.3,100,0.08,,CLR,0.20,VWS V14.01,2013-04-23 16:22:00,
2013-04-23 11:23:00,39.4,39.4,30.02,North,0,12.8,21.5,100,0.08,,CLR,0.20,VWS V14.01,2013-04-23 16:23:00,
2013-04-23 11:24:00,39.4,39.4,30.02,NNW,345,15.4,15.4,100,0.08,,CLR,0.20,VWS V14.01,2013-04-23 16:24:00,
2013-04-23 11:28:00,39.6,39.6,30.02,North,357,13.2,13.6,100,0.16,,CLR,0.28,VWS V14.01,2013-04-23 16:28:00,
2013-04-23 11:29:00,39.6,39.6,30.02,North,353,12.8,12.8,100,0.16,,CLR,0.28,VWS V14.01,2013-04-23 16:29:00,
2013-04-23 11:31:00,39.4,39.4,30.02,NNW,340,15.9,15.9,100,0.16,,CLR,0.28,VWS V14.01,2013-04-23 16:31:00,
2013-04-23 11:33:00,39.4,39.4,30.02,North,10,15.0,16.3,100,0.16,,CLR,0.28,VWS V14.01,2013-04-23 16:33:00,
2013-04-23 11:34:00,39.4,39.4,30.02,NNW,343,14.1,19.7,100,0.16,,CLR,0.28,VWS V14.01,2013-04-23 16:34:00,
2013-04-23 11:36:00,39.2,39.2,30.02,North,0,12.8,15.0,100,0.16,,CLR,0.28,VWS V14.01,2013-04-23 16:36:00,
2013-04-23 11:37:00,39.2,39.2,30.02,NNW,340,15.0,15.0,100,0.16,,CLR,0.28,VWS V14.01,2013-04-23 16:37:00,
2013-04-23 11:38:00,39.2,39.2,30.02,North,353,13.2,13.2,100,0.16,,CLR,0.28,VWS V14.01,2013-04-23 16:38:00,
2013-04-23 11:39:00,39.0,39.0,30.02,NNW,341,13.2,13.2,100,0.16,,CLR,0.28,VWS V14.01,2013-04-23 16:39:00,
2013-04-23 11:42:00,39.0,39.0,29.99,North,10,20.1,20.1,100,0.12,,CLR,0.28,VWS V14.01,2013-04-23 16:42:00,
2013-04-23 11:43:00,39.0,39.0,29.99,North,1,13.6,20.1,100,0.12,,CLR,0.28,VWS V14.01,2013-04-23 16:43:00,
2013-04-23 11:44:00,39.2,39.2,29.99,North,6,15.4,17.0,100,0.12,,CLR,0.28,VWS V14.01,2013-04-23 16:44:00,
2013-04-23 11:45:00,39.2,39.2,29.99,North,7,17.9,17.9,100,0.12,,CLR,0.28,VWS V14.01,2013-04-23 16:45:00,
2013-04-23 11:47:00,38.8,38.8,29.99,North,5,15.4,15.4,100,0.12,,CLR,0.28,VWS V14.01,2013-04-23 16:47:00,
2013-04-23 11:48:00,38.8,38.8,29.99,NNE,21,13.2,17.0,100,0.12,,CLR,0.28,VWS V14.01,2013-04-23 16:48:00,
2013-04-23 11:49:00,38.8,38.8,29.99,North,357,11.0,13.2,100,0.12,,CLR,0.28,VWS V14.01,2013-04-23 16:49:00,
2013-04-23 11:50:00,38.8,38.8,29.99,North,357,10.5,13.2,100,0.16,,CLR,0.31,VWS V14.01,2013-04-23 16:50:00,
2013-04-23 11:51:00,38.8,38.8,29.99,NNE,15,11.0,11.9,100,0.16,,CLR,0.31,VWS V14.01,2013-04-23 16:51:00,
2013-04-23 11:54:00,39.0,39.0,29.99,NNE,33,10.1,10.5,100,0.16,,CLR,0.31,VWS V14.01,2013-04-23 16:54:00,
2013-04-23 11:55:00,39.0,39.0,29.99,NNE,18,11.0,11.0,100,0.16,,CLR,0.31,VWS V14.01,2013-04-23 16:55:00,
2013-04-23 11:56:00,39.0,39.0,29.99,North,3,10.5,11.0,100,0.16,,CLR,0.31,VWS V14.01,2013-04-23 16:56:00,
2013-04-23 12:00:00,39.4,39.4,29.99,North,10,11.4,13.2,100,0.16,,CLR,0.31,VWS V14.01,2013-04-23 17:00:00,
2013-04-23 12:01:00,39.4,39.4,29.99,North,3,12.8,13.2,100,0.12,,CLR,0.31,VWS V14.01,2013-04-23 17:01:00,
2013-04-23 12:02:00,39.4,39.4,29.99,North,4,11.0,14.5,100,0.12,,CLR,0.31,VWS V14.01,2013-04-23 17:02:00,
2013-04-23 12:03:00,39.4,39.4,29.99,NNE,18,10.5,11.0,100,0.12,,CLR,0.31,VWS V14.01,2013-04-23 17:03:00,
2013-04-23 12:05:00,39.6,39.6,29.99,NNE,20,11.0,12.3,100,0.12,,CLR,0.31,VWS V14.01,2013-04-23 17:05:00,
2013-04-23 12:06:00,39.6,39.6,29.99,North,2,16.3,17.4,100,0.12,,CLR,0.31,VWS V14.01,2013-04-23 17:06:00,
2013-04-23 12:07:00,39.4,39.4,29.99,North,8,15.0,15.0,100,0.12,,CLR,0.31,VWS V14.01,2013-04-23 17:07:00,
2013-04-23 12:08:00,39.4,39.4,29.99,North,9,15.4,15.4,100,0.12,,CLR,0.31,VWS V14.01,2013-04-23 17:08:00,
2013-04-23 12:10:00,39.6,39.6,29.96,North,0,11.9,13.2,100,0.12,,CLR,0.31,VWS V14.01,2013-04-23 17:10:00,
2013-04-23 12:11:00,39.6,39.6,29.96,North,10,11.0,13.2,100,0.12,,CLR,0.31,VWS V14.01,2013-04-23 17:11:00,
2013-04-23 12:12:00,39.6,39.6,29.96,NNE,12,6.7,11.0,100,0.12,,CLR,0.31,VWS V14.01,2013-04-23 17:12:00,
2013-04-23 12:13:00,39.6,39.6,29.96,NNE,15,18.8,21.5,100,0.16,,CLR,0.35,VWS V14.01,2013-04-23 17:13:00,
2013-04-23 12:14:00,39.4,39.4,29.96,North,7,11.0,15.4,100,0.16,,CLR,0.35,VWS V14.01,2013-04-23 17:14:00,
2013-04-23 12:16:00,39.2,39.2,29.96,North,357,17.4,17.4,100,0.16,,CLR,0.35,VWS V14.01,2013-04-23 17:16:00,
2013-04-23 12:17:00,39.2,39.2,29.96,NNE,14,12.3,17.4,100,0.16,,CLR,0.35,VWS V14.01,2013-04-23 17:17:00,
2013-04-23 12:19:00,39.2,39.2,29.96,North,5,22.8,22.8,100,0.16,,CLR,0.35,VWS V14.01,2013-04-23 17:19:00,
2013-04-23 12:22:00,39.2,39.2,29.96,NNE,16,15.4,15.9,100,0.16,,CLR,0.35,VWS V14.01,2013-04-23 17:22:00,
2013-04-23 12:23:00,39.2,39.2,29.96,NNE,17,16.3,21.0,100,0.16,,CLR,0.35,VWS V14.01,2013-04-23 17:23:00,
2013-04-23 12:24:00,39.0,39.0,29.96,NNE,16,13.6,17.0,100,0.16,,CLR,0.35,VWS V14.01,2013-04-23 17:24:00,
2013-04-23 12:25:00,39.2,39.2,29.96,North,9,11.4,17.0,100,0.16,,CLR,0.35,VWS V14.01,2013-04-23 17:25:00,
2013-04-23 12:27:00,39.2,39.2,29.96,North,3,15.9,15.9,100,0.08,,CLR,0.35,VWS V14.01,2013-04-23 17:27:00,
2013-04-23 12:29:00,39.2,39.2,29.96,North,7,15.0,15.0,100,0.08,,CLR,0.35,VWS V14.01,2013-04-23 17:29:00,
2013-04-23 12:30:00,39.4,39.4,29.96,North,353,8.3,11.0,100,0.08,,CLR,0.35,VWS V14.01,2013-04-23 17:30:00,
2013-04-23 12:31:00,39.4,39.4,29.96,North,6,12.8,12.8,100,0.08,,CLR,0.35,VWS V14.01,2013-04-23 17:31:00,
2013-04-23 12:32:00,39.4,39.4,29.96,North,10,10.5,10.5,100,0.08,,CLR,0.35,VWS V14.01,2013-04-23 17:32:00,
2013-04-23 12:35:00,39.4,39.4,29.96,NNE,16,10.5,12.3,100,0.08,,CLR,0.35,VWS V14.01,2013-04-23 17:35:00,
2013-04-23 12:36:00,39.4,39.4,29.96,North,353,8.1,12.3,100,0.08,,CLR,0.35,VWS V14.01,2013-04-23 17:36:00,
2013-04-23 12:37:00,39.4,39.4,29.96,North,9,10.1,10.1,100,0.08,,CLR,0.35,VWS V14.01,2013-04-23 17:37:00,
2013-04-23 12:38:00,39.4,39.4,29.96,North,357,13.6,14.1,100,0.08,,CLR,0.35,VWS V14.01,2013-04-23 17:38:00,
2013-04-23 12:41:00,39.2,39.2,29.96,North,0,14.1,14.1,100,0.08,,CLR,0.35,VWS V14.01,2013-04-23 17:41:00,
2013-04-23 12:42:00,39.2,39.2,29.96,North,0,15.4,15.4,100,0.08,,CLR,0.35,VWS V14.01,2013-04-23 17:42:00,
2013-04-23 12:45:00,38.8,38.8,29.96,North,6,10.5,12.3,100,0.08,,CLR,0.35,VWS V14.01,2013-04-23 17:45:00,
2013-04-23 12:47:00,38.8,38.8,29.96,NNW,335,12.8,17.4,100,0.08,,CLR,0.35,VWS V14.01,2013-04-23 17:47:00,
2013-04-23 12:48:00,38.8,38.8,29.96,NNW,335,11.0,13.2,100,0.08,,CLR,0.35,VWS V14.01,2013-04-23 17:48:00,
2013-04-23 12:51:00,39.0,39.0,29.96,North,357,13.2,15.4,100,0.04,,CLR,0.35,VWS V14.01,2013-04-23 17:51:00,
2013-04-23 12:52:00,39.0,39.0,29.96,NNW,331,10.5,15.4,100,0.04,,CLR,0.35,VWS V14.01,2013-04-23 17:52:00,
2013-04-23 12:53:00,39.0,39.0,29.96,North,6,17.0,17.4,100,0.04,,CLR,0.35,VWS V14.01,2013-04-23 17:53:00,
2013-04-23 12:54:00,38.8,38.8,29.96,North,8,15.4,15.4,100,0.08,,CLR,0.39,VWS V14.01,2013-04-23 17:54:00,
2013-04-23 12:57:00,38.8,38.8,29.96,North,0,15.9,15.9,100,0.08,,CLR,0.39,VWS V14.01,2013-04-23 17:57:00,
2013-04-23 12:58:00,39.0,39.0,29.96,NNW,344,10.1,10.1,100,0.08,,CLR,0.39,VWS V14.01,2013-04-23 17:58:00,
2013-04-23 13:00:00,39.0,39.0,29.96,North,357,12.8,12.8,100,0.08,,CLR,0.39,VWS V14.01,2013-04-23 18:00:00,
2013-04-23 13:02:00,39.0,39.0,29.96,North,3,11.0,15.0,100,0.08,,CLR,0.39,VWS V14.01,2013-04-23 18:02:00,
2013-04-23 13:03:00,39.0,39.0,29.96,North,7,15.4,15.4,100,0.08,,CLR,0.39,VWS V14.01,2013-04-23 18:03:00,
2013-04-23 13:04:00,39.0,39.0,29.96,North,4,15.4,15.4,100,0.08,,CLR,0.39,VWS V14.01,2013-04-23 18:04:00,
2013-04-23 13:05:00,39.0,39.0,29.96,North,0,10.5,13.2,100,0.08,,CLR,0.39,VWS V14.01,2013-04-23 18:05:00,
2013-04-23 13:08:00,39.2,39.2,29.96,NNE,14,11.4,12.8,100,0.08,,CLR,0.39,VWS V14.01,2013-04-23 18:08:00,
2013-04-23 13:09:00,39.2,39.2,29.96,North,0,15.9,15.9,100,0.08,,CLR,0.39,VWS V14.01,2013-04-23 18:09:00,
2013-04-23 13:11:00,39.2,39.2,29.96,North,357,10.1,11.0,100,0.08,,CLR,0.39,VWS V14.01,2013-04-23 18:11:00,
2013-04-23 13:14:00,39.4,39.4,29.96,North,2,9.6,14.5,100,0.08,,CLR,0.39,VWS V14.01,2013-04-23 18:14:00,
2013-04-23 13:15:00,39.4,39.4,29.96,North,8,9.2,11.9,100,0.04,,CLR,0.39,VWS V14.01,2013-04-23 18:15:00,
2013-04-23 13:16:00,39.4,39.4,29.96,NNE,12,15.0,15.0,100,0.04,,CLR,0.39,VWS V14.01,2013-04-23 18:16:00,
2013-04-23 13:17:00,39.4,39.4,29.96,North,3,11.0,11.0,100,0.04,,CLR,0.39,VWS V14.01,2013-04-23 18:17:00,
2013-04-23 13:19:00,39.4,39.4,29.96,NNW,346,8.3,8.3,100,0.08,,CLR,0.43,VWS V14.01,2013-04-23 18:19:00,
2013-04-23 13:20:00,39.4,39.4,29.96,North,357,11.0,11.9,100,0.08,,CLR,0.43,VWS V14.01,2013-04-23 18:20:00,
2013-04-23 13:21:00,39.4,39.4,29.96,North,0,10.5,10.5,100,0.08,,CLR,0.43,VWS V14.01,2013-04-23 18:21:00,
2013-04-23 13:23:00,39.6,39.6,29.96,North,353,7.6,10.5,100,0.08,,CLR,0.43,VWS V14.01,2013-04-23 18:23:00,
2013-04-23 13:24:00,39.7,39.7,29.96,NW,325,11.0,11.0,100,0.08,,CLR,0.43,VWS V14.01,2013-04-23 18:24:00,
2013-04-23 13:26:00,39.6,39.6,29.96,NNW,341,12.8,12.8,100,0.08,,CLR,0.43,VWS V14.01,2013-04-23 18:26:00,
2013-04-23 13:27:00,39.6,39.6,29.96,North,0,12.8,12.8,100,0.08,,CLR,0.43,VWS V14.01,2013-04-23 18:27:00,
2013-04-23 13:28:00,39.4,39.4,29.96,North,353,13.2,15.4,100,0.08,,CLR,0.43,VWS V14.01,2013-04-23 18:28:00,
2013-04-23 13:30:00,39.6,39.6,29.96,North,353,14.1,14.1,100,0.08,,CLR,0.43,VWS V14.01,2013-04-23 18:30:00,
2013-04-23 13:32:00,39.4,39.4,29.96,North,0,14.5,14.5,100,0.08,,CLR,0.43,VWS V14.01,2013-04-23 18:32:00,
2013-04-23 13:33:00,39.4,39.4,29.96,NNW,338,15.9,17.4,100,0.08,,CLR,0.43,VWS V14.01,2013-04-23 18:33:00,
2013-04-23 13:34:00,39.4,39.4,29.96,North,353,10.1,17.4,100,0.08,,CLR,0.43,VWS V14.01,2013-04-23 18:34:00,
2013-04-23 13:35:00,39.6,39.6,29.96,North,353,11.0,13.2,100,0.08,,CLR,0.43,VWS V14.01,2013-04-23 18:35:00,
2013-04-23 13:37:00,39.7,39.7,29.96,North,11,15.9,15.9,100,0.08,,CLR,0.43,VWS V14.01,2013-04-23 18:37:00,
2013-04-23 13:38:00,39.7,39.7,29.96,North,0,8.3,15.9,100,0.08,,CLR,0.43,VWS V14.01,2013-04-23 18:38:00,
2013-04-23 13:39:00,39.7,39.7,29.96,NNW,335,13.2,13.2,100,0.08,,CLR,0.43,VWS V14.01,2013-04-23 18:39:00,
2013-04-23 13:41:00,39.7,39.7,29.96,North,353,20.6,20.6,100,0.08,,CLR,0.43,VWS V14.01,2013-04-23 18:41:00,
2013-04-23 13:42:00,39.7,39.7,29.96,NNW,339,15.9,20.6,100,0.08,,CLR,0.43,VWS V14.01,2013-04-23 18:42:00,
2013-04-23 13:43:00,39.7,39.7,29.96,NNW,348,16.8,17.0,100,0.08,,CLR,0.43,VWS V14.01,2013-04-23 18:43:00,
2013-04-23 13:44:00,39.7,39.7,29.96,NNW,343,13.2,17.4,100,0.08,,CLR,0.43,VWS V14.01,2013-04-23 18:44:00,
2013-04-23 13:45:00,39.7,39.7,29.96,North,357,17.4,17.4,100,0.08,,CLR,0.43,VWS V14.01,2013-04-23 18:45:00,
2013-04-23 13:46:00,39.7,39.7,29.96,North,357,15.9,16.3,100,0.08,,CLR,0.43,VWS V14.01,2013-04-23 18:46:00,
2013-04-23 13:47:00,39.7,39.7,29.96,NNW,348,15.0,16.3,100,0.08,,CLR,0.43,VWS V14.01,2013-04-23 18:47:00,
2013-04-23 13:48:00,39.7,39.7,29.96,NNW,331,15.0,15.0,100,0.08,,CLR,0.43,VWS V14.01,2013-04-23 18:48:00,
2013-04-23 13:49:00,39.7,39.7,29.96,NNE,14,18.8,18.8,100,0.08,,CLR,0.43,VWS V14.01,2013-04-23 18:49:00,
2013-04-23 13:50:00,39.7,39.7,29.96,North,353,10.1,10.1,100,0.08,,CLR,0.43,VWS V14.01,2013-04-23 18:50:00,
2013-04-23 13:52:00,39.9,39.9,29.96,NNW,327,15.0,15.0,100,0.08,,CLR,0.43,VWS V14.01,2013-04-23 18:52:00,
2013-04-23 13:54:00,39.7,39.7,29.96,NNW,334,15.4,15.4,100,0.08,,CLR,0.43,VWS V14.01,2013-04-23 18:54:00,
2013-04-23 13:56:00,39.7,39.7,29.96,North,0,11.9,11.9,100,0.04,,CLR,0.43,VWS V14.01,2013-04-23 18:56:00,
2013-04-23 13:57:00,39.6,39.6,29.96,NNW,346,11.0,15.4,100,0.04,,CLR,0.43,VWS V14.01,2013-04-23 18:57:00,
2013-04-23 13:58:00,39.6,39.6,29.96,North,0,15.0,15.4,100,0.04,,CLR,0.43,VWS V14.01,2013-04-23 18:58:00,
2013-04-23 13:59:00,39.6,39.6,29.96,North,2,15.0,15.4,100,0.04,,CLR,0.43,VWS V14.01,2013-04-23 18:59:00,
2013-04-23 14:01:00,39.6,39.6,29.96,NNW,345,17.4,17.4,100,0.04,,CLR,0.43,VWS V14.01,2013-04-23 19:01:00,
2013-04-23 14:03:00,39.6,39.6,29.96,North,353,15.0,15.0,100,0.04,,CLR,0.43,VWS V14.01,2013-04-23 19:03:00,
2013-04-23 14:04:00,39.4,39.4,29.96,North,0,16.8,20.1,100,0.04,,CLR,0.43,VWS V14.01,2013-04-23 19:04:00,
2013-04-23 14:06:00,39.4,39.4,29.96,North,6,19.7,19.7,100,0.04,,CLR,0.43,VWS V14.01,2013-04-23 19:06:00,
2013-04-23 14:08:00,39.6,39.6,29.96,North,4,15.9,15.9,100,0.04,,CLR,0.43,VWS V14.01,2013-04-23 19:08:00,
2013-04-23 14:09:00,39.7,39.7,29.96,North,9,11.0,12.8,100,0.04,,CLR,0.43,VWS V14.01,2013-04-23 19:09:00,
2013-04-23 14:10:00,39.7,39.7,29.96,North,7,14.5,22.4,100,0.04,,CLR,0.43,VWS V14.01,2013-04-23 19:10:00,
2013-04-23 14:12:00,39.7,39.7,29.96,North,357,16.3,17.4,100,0.04,,CLR,0.43,VWS V14.01,2013-04-23 19:12:00,
2013-04-23 14:14:00,39.7,39.7,29.96,NNW,345,15.4,16.3,100,0.04,,CLR,0.43,VWS V14.01,2013-04-23 19:14:00,
2013-04-23 14:15:00,39.7,39.7,29.96,North,6,15.9,16.3,100,0.04,,CLR,0.43,VWS V14.01,2013-04-23 19:15:00,
2013-04-23 14:18:00,39.4,39.4,29.96,North,2,17.9,17.9,100,0.04,,CLR,0.43,VWS V14.01,2013-04-23 19:18:00,
2013-04-23 14:19:00,39.4,39.4,29.96,NNW,346,13.2,15.4,100,0.04,,CLR,0.43,VWS V14.01,2013-04-23 19:19:00,
2013-04-23 14:20:00,39.4,39.4,29.96,North,357,15.4,15.4,100,0.00,,CLR,0.43,VWS V14.01,2013-04-23 19:20:00,
2013-04-23 14:23:00,39.6,39.6,29.96,North,357,16.8,16.8,100,0.00,,CLR,0.43,VWS V14.01,2013-04-23 19:23:00,
2013-04-23 14:24:00,39.6,39.6,29.96,NNW,345,15.0,16.8,100,0.00,,CLR,0.43,VWS V14.01,2013-04-23 19:24:00,
2013-04-23 14:25:00,39.6,39.6,29.96,NNW,337,10.5,10.5,100,0.00,,CLR,0.43,VWS V14.01,2013-04-23 19:25:00,
2013-04-23 14:26:00,39.6,39.6,29.96,NNE,14,17.4,17.4,100,0.00,,CLR,0.43,VWS V14.01,2013-04-23 19:26:00,
2013-04-23 14:29:00,39.4,39.4,29.96,North,350,11.0,12.3,100,0.00,,CLR,0.43,VWS V14.01,2013-04-23 19:29:00,
2013-04-23 14:30:00,39.4,39.4,29.96,NNW,332,11.0,13.2,100,0.00,,CLR,0.43,VWS V14.01,2013-04-23 19:30:00,
2013-04-23 14:31:00,39.6,39.6,29.96,North,9,11.0,13.2,100,0.00,,CLR,0.43,VWS V14.01,2013-04-23 19:31:00,
2013-04-23 14:34:00,39.4,39.4,29.96,NNW,342,11.4,11.9,100,0.00,,CLR,0.43,VWS V14.01,2013-04-23 19:34:00,
2013-04-23 14:35:00,39.6,39.6,29.96,North,353,17.4,17.4,100,0.00,,CLR,0.43,VWS V14.01,2013-04-23 19:35:00,
2013-04-23 14:36:00,39.6,39.6,29.96,North,353,17.4,17.4,100,0.00,,CLR,0.43,VWS V14.01,2013-04-23 19:36:00,
2013-04-23 14:38:00,39.4,39.4,29.96,NNW,342,12.8,17.0,100,0.00,,CLR,0.43,VWS V14.01,2013-04-23 19:38:00,
2013-04-23 14:40:00,39.4,39.4,29.96,North,353,13.2,13.2,100,0.00,,CLR,0.43,VWS V14.01,2013-04-23 19:40:00,
2013-04-23 14:41:00,39.4,39.4,29.96,NNW,344,12.8,13.6,100,0.00,,CLR,0.43,VWS V14.01,2013-04-23 19:41:00,
2013-04-23 14:42:00,39.4,39.4,29.96,North,0,17.4,17.4,100,0.00,,CLR,0.43,VWS V14.01,2013-04-23 19:42:00,
2013-04-23 14:43:00,39.4,39.4,29.96,NNW,344,12.3,12.8,100,0.00,,CLR,0.43,VWS V14.01,2013-04-23 19:43:00,
2013-04-23 14:46:00,39.4,39.4,29.96,North,357,15.0,16.8,100,0.00,,CLR,0.43,VWS V14.01,2013-04-23 19:46:00,
2013-04-23 14:47:00,39.4,39.4,29.96,NNW,341,13.2,15.0,100,0.00,,CLR,0.43,VWS V14.01,2013-04-23 19:47:00,
2013-04-23 14:48:00,39.4,39.4,29.96,North,0,13.2,13.2,100,0.00,,CLR,0.43,VWS V14.01,2013-04-23 19:48:00,
2013-04-23 14:49:00,39.4,39.4,29.96,North,9,15.4,17.4,100,0.00,,CLR,0.43,VWS V14.01,2013-04-23 19:49:00,
2013-04-23 14:51:00,39.4,39.4,29.96,North,357,12.3,17.4,100,0.00,,CLR,0.43,VWS V14.01,2013-04-23 19:51:00,
2013-04-23 14:53:00,39.4,39.4,29.96,NNW,348,19.2,19.2,100,0.00,,CLR,0.43,VWS V14.01,2013-04-23 19:53:00,
2013-04-23 14:54:00,39.4,39.4,29.96,North,5,14.5,16.8,100,0.00,,CLR,0.43,VWS V14.01,2013-04-23 19:54:00,
2013-04-23 14:56:00,39.2,39.2,29.99,North,11,12.8,19.7,100,0.00,,CLR,0.43,VWS V14.01,2013-04-23 19:56:00,
2013-04-23 14:58:00,39.2,39.2,29.99,North,357,18.3,18.3,100,0.00,,CLR,0.43,VWS V14.01,2013-04-23 19:58:00,
2013-04-23 14:59:00,39.4,39.4,29.99,NNW,328,14.1,15.0,100,0.00,,CLR,0.43,VWS V14.01,2013-04-23 19:59:00,
2013-04-23 15:01:00,39.4,39.4,29.99,North,349,12.8,12.8,100,0.00,,CLR,0.43,VWS V14.01,2013-04-23 20:01:00,
2013-04-23 15:02:00,39.4,39.4,29.99,NW,325,12.8,12.8,100,0.00,,CLR,0.43,VWS V14.01,2013-04-23 20:02:00,
2013-04-23 15:04:00,39.2,39.2,29.99,NNW,337,13.6,13.6,100,0.00,,CLR,0.43,VWS V14.01,2013-04-23 20:04:00,
2013-04-23 15:05:00,39.2,39.2,29.99,NNW,334,15.9,16.8,100,0.00,,CLR,0.43,VWS V14.01,2013-04-23 20:05:00,
2013-04-23 15:06:00,39.2,39.2,29.99,NNW,338,13.2,15.9,100,0.00,,CLR,0.43,VWS V14.01,2013-04-23 20:06:00,
2013-04-23 15:07:00,39.2,39.2,29.99,North,0,11.0,15.0,100,0.00,,CLR,0.43,VWS V14.01,2013-04-23 20:07:00,
2013-04-23 15:09:00,39.2,39.2,29.99,NNW,346,14.1,14.1,100,0.00,,CLR,0.43,VWS V14.01,2013-04-23 20:09:00,
2013-04-23 15:10:00,39.2,39.2,29.99,NNW,328,17.4,17.4,100,0.00,,CLR,0.43,VWS V14.01,2013-04-23 20:10:00,
2013-04-23 15:12:00,39.0,39.0,29.99,NNW,329,13.2,16.3,100,0.00,,CLR,0.43,VWS V14.01,2013-04-23 20:12:00,
2013-04-23 15:13:00,39.0,39.0,29.99,NW,326,12.3,16.3,100,0.00,,CLR,0.43,VWS V14.01,2013-04-23 20:13:00,
2013-04-23 15:15:00,39.0,39.0,29.99,NNW,332,13.2,13.2,100,0.00,,CLR,0.43,VWS V14.01,2013-04-23 20:15:00,
2013-04-23 15:17:00,39.0,39.0,29.99,North,353,10.5,11.4,100,0.00,,CLR,0.43,VWS V14.01,2013-04-23 20:17:00,
2013-04-23 15:18:00,39.2,39.2,29.99,NNW,346,15.4,15.4,100,0.00,,CLR,0.43,VWS V14.01,2013-04-23 20:18:00,
2013-04-23 15:19:00,39.2,39.2,29.99,NNW,342,21.0,21.0,100,0.00,,CLR,0.43,VWS V14.01,2013-04-23 20:19:00,
2013-04-23 15:20:00,39.2,39.2,29.99,NNW,328,14.5,17.4,100,0.00,,CLR,0.43,VWS V14.01,2013-04-23 20:20:00,
2013-04-23 15:23:00,39.2,39.2,29.99,North,0,15.0,15.4,100,0.00,,CLR,0.43,VWS V14.01,2013-04-23 20:23:00,
2013-04-23 15:24:00,39.2,39.2,29.99,North,5,15.0,15.0,100,0.00,,CLR,0.43,VWS V14.01,2013-04-23 20:24:00,
2013-04-23 15:26:00,39.2,39.2,29.99,NNE,13,15.0,15.0,100,0.04,,CLR,0.47,VWS V14.01,2013-04-23 20:26:00,
2013-04-23 15:27:00,39.2,39.2,29.99,North,0,15.0,19.7,100,0.04,,CLR,0.47,VWS V14.01,2013-04-23 20:27:00,
2013-04-23 15:28:00,39.2,39.2,29.99,NNW,336,14.1,14.1,100,0.04,,CLR,0.47,VWS V14.01,2013-04-23 20:28:00,
2013-04-23 15:29:00,39.2,39.2,29.99,NNW,343,15.0,15.0,100,0.04,,CLR,0.47,VWS V14.01,2013-04-23 20:29:00,
2013-04-23 15:31:00,39.2,39.2,29.99,North,357,15.4,15.4,100,0.04,,CLR,0.47,VWS V14.01,2013-04-23 20:31:00,
2013-04-23 15:34:00,39.2,39.2,29.99,North,349,8.3,14.5,100,0.04,,CLR,0.47,VWS V14.01,2013-04-23 20:34:00,
2013-04-23 15:35:00,39.2,39.2,29.99,North,0,13.6,17.4,100,0.04,,CLR,0.47,VWS V14.01,2013-04-23 20:35:00,
2013-04-23 15:36:00,39.2,39.2,29.99,NNW,339,8.7,12.8,100,0.04,,CLR,0.47,VWS V14.01,2013-04-23 20:36:00,
2013-04-23 15:39:00,39.4,39.4,29.99,NNW,330,15.4,15.4,100,0.04,,CLR,0.47,VWS V14.01,2013-04-23 20:39:00,
2013-04-23 15:40:00,39.2,39.2,29.99,NNW,332,11.9,15.4,100,0.04,,CLR,0.47,VWS V14.01,2013-04-23 20:40:00,
2013-04-23 15:42:00,39.2,39.2,29.99,North,353,15.0,16.3,100,0.04,,CLR,0.47,VWS V14.01,2013-04-23 20:42:00,
2013-04-23 15:44:00,39.0,39.0,29.99,North,353,18.3,18.3,100,0.04,,CLR,0.47,VWS V14.01,2013-04-23 20:44:00,
2013-04-23 15:45:00,39.0,39.0,29.99,NNW,337,13.2,18.3,100,0.04,,CLR,0.47,VWS V14.01,2013-04-23 20:45:00,
2013-04-23 15:46:00,39.0,39.0,29.99,North,0,9.6,11.0,100,0.04,,CLR,0.47,VWS V14.01,2013-04-23 20:46:00,
2013-04-23 15:48:00,39.2,39.2,29.99,North,350,11.0,11.0,100,0.04,,CLR,0.47,VWS V14.01,2013-04-23 20:48:00,
2013-04-23 15:50:00,39.2,39.2,29.99,North,353,8.1,12.3,100,0.04,,CLR,0.47,VWS V14.01,2013-04-23 20:50:00,
2013-04-23 15:52:00,39.2,39.2,29.99,NNW,343,12.3,12.8,100,0.04,,CLR,0.47,VWS V14.01,2013-04-23 20:52:00,
2013-04-23 15:53:00,39.2,39.2,29.99,NNW,329,10.1,12.8,100,0.04,,CLR,0.47,VWS V14.01,2013-04-23 20:53:00,
2013-04-23 15:56:00,39.2,39.2,29.99,North,2,13.2,13.2,100,0.04,,CLR,0.47,VWS V14.01,2013-04-23 20:56:00,
2013-04-23 15:57:00,39.2,39.2,29.99,North,357,15.0,15.0,100,0.04,,CLR,0.47,VWS V14.01,2013-04-23 20:57:00,
2013-04-23 15:59:00,39.0,39.0,29.99,NNW,334,15.4,15.4,100,0.04,,CLR,0.47,VWS V14.01,2013-04-23 20:59:00,
2013-04-23 16:01:00,39.0,39.0,29.99,NNW,343,15.4,15.4,100,0.04,,CLR,0.47,VWS V14.01,2013-04-23 21:01:00,
2013-04-23 16:02:00,39.0,39.0,29.99,North,353,12.3,15.4,100,0.04,,CLR,0.47,VWS V14.01,2013-04-23 21:02:00,
2013-04-23 16:03:00,39.0,39.0,29.99,North,353,15.9,15.9,100,0.04,,CLR,0.47,VWS V14.01,2013-04-23 21:03:00,
2013-04-23 16:05:00,39.0,39.0,29.99,North,357,8.3,12.3,100,0.04,,CLR,0.47,VWS V14.01,2013-04-23 21:05:00,
2013-04-23 16:07:00,39.0,39.0,29.99,NNW,341,11.0,13.2,100,0.04,,CLR,0.47,VWS V14.01,2013-04-23 21:07:00,
2013-04-23 16:08:00,39.2,39.2,29.99,North,0,15.4,15.4,100,0.04,,CLR,0.47,VWS V14.01,2013-04-23 21:08:00,
2013-04-23 16:09:00,39.2,39.2,29.99,NNW,336,11.4,15.4,100,0.04,,CLR,0.47,VWS V14.01,2013-04-23 21:09:00,
2013-04-23 16:12:00,39.2,39.2,29.96,NNW,335,12.8,15.4,100,0.04,,CLR,0.47,VWS V14.01,2013-04-23 21:12:00,
2013-04-23 16:13:00,39.2,39.2,29.96,North,350,12.3,15.0,100,0.04,,CLR,0.47,VWS V14.01,2013-04-23 21:13:00,
2013-04-23 16:14:00,39.0,39.0,29.96,North,353,15.0,15.0,100,0.04,,CLR,0.47,VWS V14.01,2013-04-23 21:14:00,
2013-04-23 16:15:00,39.0,39.0,29.96,NNW,341,11.0,15.0,100,0.04,,CLR,0.47,VWS V14.01,2013-04-23 21:15:00,
2013-04-23 16:17:00,39.0,39.0,29.96,NNW,340,15.0,16.8,100,0.04,,CLR,0.47,VWS V14.01,2013-04-23 21:17:00,
2013-04-23 16:19:00,39.0,39.0,29.96,NNW,343,15.4,15.4,100,0.04,,CLR,0.47,VWS V14.01,2013-04-23 21:19:00,
2013-04-23 16:20:00,39.0,39.0,29.96,NNW,338,15.4,19.7,100,0.04,,CLR,0.47,VWS V14.01,2013-04-23 21:20:00,
2013-04-23 16:23:00,39.0,39.0,29.96,North,0,11.0,15.0,100,0.04,,CLR,0.47,VWS V14.01,2013-04-23 21:23:00,
2013-04-23 16:24:00,39.0,39.0,29.99,NNE,17,16.3,16.3,100,0.04,,CLR,0.47,VWS V14.01,2013-04-23 21:24:00,
2013-04-23 16:25:00,39.0,39.0,29.99,North,11,13.6,13.6,100,0.04,,CLR,0.47,VWS V14.01,2013-04-23 21:25:00,
2013-04-23 16:26:00,38.8,38.8,29.99,NNW,338,14.5,22.8,100,0.04,,CLR,0.47,VWS V14.01,2013-04-23 21:26:00,
2013-04-23 16:30:00,38.8,38.8,29.99,North,7,17.4,17.4,100,0.00,,CLR,0.47,VWS V14.01,2013-04-23 21:30:00,
2013-04-23 16:31:00,38.8,38.8,29.99,North,0,12.3,12.3,100,0.00,,CLR,0.47,VWS V14.01,2013-04-23 21:31:00,
2013-04-23 16:35:00,38.8,38.8,29.99,North,1,13.2,15.4,100,0.00,,CLR,0.47,VWS V14.01,2013-04-23 21:35:00,
2013-04-23 16:36:00,38.8,38.8,29.99,North,6,14.1,15.4,100,0.00,,CLR,0.47,VWS V14.01,2013-04-23 21:36:00,
2013-04-23 16:37:00,38.8,38.8,29.99,North,0,11.0,14.1,100,0.04,,CLR,0.51,VWS V14.01,2013-04-23 21:37:00,
2013-04-23 16:38:00,38.8,38.8,29.99,NNW,346,11.0,13.6,100,0.04,,CLR,0.51,VWS V14.01,2013-04-23 21:38:00,
2013-04-23 16:40:00,38.8,38.8,29.96,NNW,341,12.3,12.3,100,0.04,,CLR,0.51,VWS V14.01,2013-04-23 21:40:00,
2013-04-23 16:41:00,38.8,38.8,29.96,North,7,12.8,12.8,100,0.04,,CLR,0.51,VWS V14.01,2013-04-23 21:41:00,
2013-04-23 16:42:00,38.8,38.8,29.96,North,4,15.4,16.3,100,0.04,,CLR,0.51,VWS V14.01,2013-04-23 21:42:00,
2013-04-23 16:43:00,38.8,38.8,29.96,NNW,343,15.4,17.4,100,0.04,,CLR,0.51,VWS V14.01,2013-04-23 21:43:00,
2013-04-23 16:47:00,38.8,38.8,29.96,NNW,334,12.8,18.3,100,0.04,,CLR,0.51,VWS V14.01,2013-04-23 21:47:00,
2013-04-23 16:48:00,38.8,38.8,29.96,NNW,331,10.5,13.2,100,0.04,,CLR,0.51,VWS V14.01,2013-04-23 21:48:00,
2013-04-23 16:52:00,39.0,39.0,29.96,North,0,11.0,16.8,100,0.04,,CLR,0.51,VWS V14.01,2013-04-23 21:52:00,
2013-04-23 16:53:00,38.8,38.8,29.96,NNW,339,10.1,15.4,100,0.04,,CLR,0.51,VWS V14.01,2013-04-23 21:53:00,
2013-04-23 16:54:00,38.8,38.8,29.96,NNE,12,15.0,15.4,100,0.04,,CLR,0.51,VWS V14.01,2013-04-23 21:54:00,
2013-04-23 16:57:00,38.8,38.8,29.96,North,353,11.9,20.1,100,0.04,,CLR,0.51,VWS V14.01,2013-04-23 21:57:00,
2013-04-23 16:58:00,38.8,38.8,29.96,North,10,10.5,10.5,100,0.04,,CLR,0.51,VWS V14.01,2013-04-23 21:58:00,
2013-04-23 17:00:00,39.0,39.0,29.96,North,2,15.4,17.9,100,0.04,,CLR,0.51,VWS V14.01,2013-04-23 22:00:00,
2013-04-23 17:03:00,38.8,38.8,29.96,North,353,12.3,14.5,100,0.04,,CLR,0.51,VWS V14.01,2013-04-23 22:03:00,
2013-04-23 17:04:00,38.8,38.8,29.96,North,2,13.2,18.8,100,0.04,,CLR,0.51,VWS V14.01,2013-04-23 22:04:00,
2013-04-23 17:05:00,38.8,38.8,29.96,NNW,343,12.3,15.0,100,0.04,,CLR,0.51,VWS V14.01,2013-04-23 22:05:00,
2013-04-23 17:08:00,38.8,38.8,29.96,North,349,11.0,15.4,100,0.04,,CLR,0.51,VWS V14.01,2013-04-23 22:08:00,
2013-04-23 17:09:00,38.8,38.8,29.96,NNW,329,12.3,12.3,100,0.04,,CLR,0.51,VWS V14.01,2013-04-23 22:09:00,
2013-04-23 17:11:00,38.8,38.8,29.99,North,350,12.8,12.8,100,0.04,,CLR,0.51,VWS V14.01,2013-04-23 22:11:00,
2013-04-23 17:12:00,38.8,38.8,29.99,NNW,338,11.0,12.8,100,0.04,,CLR,0.51,VWS V14.01,2013-04-23 22:12:00,
2013-04-23 17:13:00,38.8,38.8,29.99,NNW,328,11.0,17.4,100,0.04,,CLR,0.51,VWS V14.01,2013-04-23 22:13:00,
2013-04-23 17:14:00,38.8,38.8,29.99,North,4,17.4,17.4,100,0.08,,CLR,0.55,VWS V14.01,2013-04-23 22:14:00,
2013-04-23 17:15:00,38.7,38.7,29.99,North,353,13.2,17.4,100,0.08,,CLR,0.55,VWS V14.01,2013-04-23 22:15:00,
2013-04-23 17:17:00,38.7,38.7,29.99,North,357,17.4,17.4,100,0.08,,CLR,0.55,VWS V14.01,2013-04-23 22:17:00,
2013-04-23 17:19:00,38.8,38.8,29.99,North,0,11.0,11.0,100,0.08,,CLR,0.55,VWS V14.01,2013-04-23 22:19:00,
2013-04-23 17:20:00,38.8,38.8,29.99,North,357,12.8,15.0,100,0.08,,CLR,0.55,VWS V14.01,2013-04-23 22:20:00,
2013-04-23 17:24:00,38.8,38.8,29.96,NNE,14,15.4,16.8,100,0.08,,CLR,0.55,VWS V14.01,2013-04-23 22:24:00,
2013-04-23 17:25:00,38.8,38.8,29.96,NNE,19,17.4,17.4,100,0.08,,CLR,0.55,VWS V14.01,2013-04-23 22:25:00,
2013-04-23 17:26:00,38.8,38.8,29.96,North,350,13.2,17.4,100,0.08,,CLR,0.55,VWS V14.01,2013-04-23 22:26:00,
2013-04-23 17:30:00,38.8,38.8,29.96,North,357,10.5,15.0,100,0.08,,CLR,0.55,VWS V14.01,2013-04-23 22:30:00,
2013-04-23 17:31:00,38.8,38.8,29.96,NNW,342,9.6,15.4,100,0.08,,CLR,0.55,VWS V14.01,2013-04-23 22:31:00,
2013-04-23 17:33:00,38.8,38.8,29.96,North,353,12.3,14.1,100,0.08,,CLR,0.55,VWS V14.01,2013-04-23 22:33:00,
2013-04-23 17:35:00,38.8,38.8,29.96,North,353,11.0,15.4,100,0.08,,CLR,0.55,VWS V14.01,2013-04-23 22:35:00,
2013-04-23 17:36:00,38.7,38.7,29.96,North,0,11.0,13.6,100,0.08,,CLR,0.55,VWS V14.01,2013-04-23 22:36:00,
2013-04-23 17:38:00,38.7,38.7,29.96,North,4,12.3,13.2,100,0.04,,CLR,0.55,VWS V14.01,2013-04-23 22:38:00,
2013-04-23 17:40:00,38.8,38.8,29.99,North,4,8.3,11.0,100,0.04,,CLR,0.55,VWS V14.01,2013-04-23 22:40:00,
2013-04-23 17:41:00,38.8,38.8,29.99,North,3,15.4,15.4,100,0.04,,CLR,0.55,VWS V14.01,2013-04-23 22:41:00,
2013-04-23 17:43:00,38.8,38.8,29.99,NNE,23,8.7,11.0,100,0.04,,CLR,0.55,VWS V14.01,2013-04-23 22:43:00,
2013-04-23 17:45:00,38.8,38.8,29.99,NNW,338,11.0,11.0,100,0.04,,CLR,0.55,VWS V14.01,2013-04-23 22:45:00,
2013-04-23 17:47:00,38.8,38.8,29.99,NNW,340,12.8,15.0,100,0.04,,CLR,0.55,VWS V14.01,2013-04-23 22:47:00,
2013-04-23 17:48:00,38.8,38.8,29.99,North,0,12.8,13.6,100,0.04,,CLR,0.55,VWS V14.01,2013-04-23 22:48:00,
2013-04-23 17:49:00,38.7,38.7,29.99,North,357,15.4,15.4,100,0.04,,CLR,0.55,VWS V14.01,2013-04-23 22:49:00,
2013-04-23 17:52:00,38.7,38.7,29.99,North,357,15.9,15.9,100,0.04,,CLR,0.55,VWS V14.01,2013-04-23 22:52:00,
2013-04-23 17:53:00,38.5,38.5,29.99,North,0,13.2,15.0,100,0.04,,CLR,0.55,VWS V14.01,2013-04-23 22:53:00,
2013-04-23 17:55:00,38.5,38.5,29.99,North,353,8.3,13.2,100,0.04,,CLR,0.55,VWS V14.01,2013-04-23 22:55:00,
2013-04-23 17:57:00,38.5,38.5,29.99,North,349,11.0,13.2,100,0.04,,CLR,0.55,VWS V14.01,2013-04-23 22:57:00,
2013-04-23 17:59:00,38.7,38.7,29.99,North,357,13.2,13.2,100,0.04,,CLR,0.55,VWS V14.01,2013-04-23 22:59:00,
2013-04-23 18:00:00,38.7,38.7,29.99,NNW,344,10.5,11.0,100,0.04,,CLR,0.55,VWS V14.01,2013-04-23 23:00:00,
2013-04-23 18:01:00,38.7,38.7,29.99,North,350,12.8,12.8,100,0.04,,CLR,0.55,VWS V14.01,2013-04-23 23:01:00,
2013-04-23 18:02:00,38.7,38.7,29.99,North,353,10.5,15.0,100,0.04,,CLR,0.55,VWS V14.01,2013-04-23 23:02:00,
2013-04-23 18:04:00,38.7,38.7,29.99,North,353,8.7,12.3,100,0.04,,CLR,0.55,VWS V14.01,2013-04-23 23:04:00,
2013-04-23 18:05:00,38.7,38.7,29.99,NNW,337,15.0,15.4,100,0.04,,CLR,0.55,VWS V14.01,2013-04-23 23:05:00,
2013-04-23 18:06:00,38.7,38.7,29.99,North,357,12.3,17.4,100,0.04,,CLR,0.55,VWS V14.01,2013-04-23 23:06:00,
2013-04-23 18:08:00,38.7,38.7,29.99,NNE,17,14.1,14.1,100,0.04,,CLR,0.55,VWS V14.01,2013-04-23 23:08:00,
2013-04-23 18:09:00,38.7,38.7,29.99,NNW,342,10.5,14.1,100,0.04,,CLR,0.55,VWS V14.01,2013-04-23 23:09:00,
2013-04-23 18:10:00,38.7,38.7,29.99,NNE,14,11.0,11.0,100,0.04,,CLR,0.55,VWS V14.01,2013-04-23 23:10:00,
2013-04-23 18:12:00,38.5,38.5,29.99,North,0,11.9,15.0,100,0.04,,CLR,0.55,VWS V14.01,2013-04-23 23:12:00,
2013-04-23 18:14:00,38.5,38.5,29.99,North,0,13.2,13.6,100,0.04,,CLR,0.55,VWS V14.01,2013-04-23 23:14:00,
2013-04-23 18:17:00,38.5,38.5,29.99,North,0,8.3,13.2,100,0.00,,CLR,0.55,VWS V14.01,2013-04-23 23:17:00,
2013-04-23 18:18:00,38.5,38.5,29.99,North,5,13.2,14.1,100,0.00,,CLR,0.55,VWS V14.01,2013-04-23 23:18:00,
2013-04-23 18:19:00,38.5,38.5,29.99,NNW,348,12.8,14.1,100,0.00,,CLR,0.55,VWS V14.01,2013-04-23 23:19:00,
2013-04-23 18:23:00,38.7,38.7,29.99,North,0,13.2,13.2,100,0.00,,CLR,0.55,VWS V14.01,2013-04-23 23:23:00,
2013-04-23 18:24:00,38.7,38.7,29.99,North,353,14.5,14.5,100,0.00,,CLR,0.55,VWS V14.01,2013-04-23 23:24:00,
2013-04-23 18:25:00,38.7,38.7,29.99,North,357,11.0,14.5,100,0.00,,CLR,0.55,VWS V14.01,2013-04-23 23:25:00,
2013-04-23 18:29:00,38.7,38.7,29.99,NNW,335,8.7,10.5,100,0.00,,CLR,0.55,VWS V14.01,2013-04-23 23:29:00,
2013-04-23 18:30:00,38.7,38.7,29.99,NNW,344,11.0,11.0,100,0.00,,CLR,0.55,VWS V14.01,2013-04-23 23:30:00,
2013-04-23 18:31:00,38.8,38.8,29.99,WSW,243,14.1,15.0,100,0.00,,CLR,0.55,VWS V14.01,2013-04-23 23:31:00,
2013-04-23 18:34:00,38.7,38.7,29.99,NNW,346,12.8,12.8,100,0.00,,CLR,0.55,VWS V14.01,2013-04-23 23:34:00,
2013-04-23 18:35:00,38.7,38.7,29.99,NNW,332,8.7,12.8,100,0.00,,CLR,0.55,VWS V14.01,2013-04-23 23:35:00,
2013-04-23 18:36:00,38.7,38.7,29.99,NNW,334,14.5,14.5,100,0.00,,CLR,0.55,VWS V14.01,2013-04-23 23:36:00,
2013-04-23 18:37:00,38.7,38.7,29.99,North,349,12.8,12.8,100,0.00,,CLR,0.55,VWS V14.01,2013-04-23 23:37:00,
2013-04-23 18:40:00,38.7,38.7,29.99,North,357,11.9,12.8,100,0.00,,CLR,0.55,VWS V14.01,2013-04-23 23:40:00,
2013-04-23 18:42:00,38.7,38.7,29.99,North,353,13.6,13.6,100,0.00,,CLR,0.55,VWS V14.01,2013-04-23 23:42:00,
2013-04-23 18:43:00,38.7,38.7,29.99,NNW,345,8.3,8.7,100,0.00,,CLR,0.55,VWS V14.01,2013-04-23 23:43:00,
2013-04-23 18:44:00,38.7,38.7,29.99,NNW,331,10.5,10.5,100,0.00,,CLR,0.55,VWS V14.01,2013-04-23 23:44:00,
2013-04-23 18:45:00,38.7,38.7,29.99,North,8,14.5,14.5,100,0.00,,CLR,0.55,VWS V14.01,2013-04-23 23:45:00,
2013-04-23 18:47:00,38.7,38.7,29.99,North,7,14.1,15.0,100,0.00,,CLR,0.55,VWS V14.01,2013-04-23 23:47:00,
2013-04-23 18:48:00,38.7,38.7,29.99,North,357,14.5,14.5,100,0.00,,CLR,0.55,VWS V14.01,2013-04-23 23:48:00,
2013-04-23 18:49:00,38.7,38.7,29.99,North,0,10.1,12.8,100,0.00,,CLR,0.55,VWS V14.01,2013-04-23 23:49:00,
2013-04-23 18:50:00,38.7,38.7,29.99,North,5,8.7,12.8,100,0.00,,CLR,0.55,VWS V14.01,2013-04-23 23:50:00,
2013-04-23 18:51:00,38.5,38.5,29.99,NNW,348,10.5,10.5,100,0.00,,CLR,0.55,VWS V14.01,2013-04-23 23:51:00,
2013-04-23 18:53:00,38.5,38.5,29.99,North,349,10.1,15.0,100,0.00,,CLR,0.55,VWS V14.01,2013-04-23 23:53:00,
2013-04-23 18:54:00,38.5,38.5,29.96,North,0,11.9,15.0,100,0.00,,CLR,0.55,VWS V14.01,2013-04-23 23:54:00,
2013-04-23 18:55:00,38.5,38.5,29.96,North,5,8.1,8.1,100,0.00,,CLR,0.55,VWS V14.01,2013-04-23 23:55:00,
2013-04-23 18:56:00,38.5,38.5,29.96,North,353,11.0,11.0,100,0.04,,CLR,0.59,VWS V14.01,2013-04-23 23:56:00,
2013-04-23 18:57:00,38.5,38.5,29.96,NNW,332,8.7,15.4,100,0.04,,CLR,0.59,VWS V14.01,2013-04-23 23:57:00,
2013-04-23 18:59:00,38.5,38.5,29.96,NNW,331,10.5,10.5,100,0.04,,CLR,0.59,VWS V14.01,2013-04-23 23:59:00,
2013-04-23 19:00:00,38.5,38.5,29.96,NNW,338,8.7,10.5,100,0.04,,CLR,0.59,VWS V14.01,2013-04-24 00:00:00,
2013-04-23 19:01:00,38.5,38.5,29.96,NNW,328,12.8,12.8,100,0.04,,CLR,0.59,VWS V14.01,2013-04-24 00:01:00,
2013-04-23 19:02:00,38.5,38.5,29.96,NNW,339,9.2,12.8,100,0.04,,CLR,0.59,VWS V14.01,2013-04-24 00:02:00,
2013-04-23 19:03:00,38.5,38.5,29.96,North,353,10.5,13.2,100,0.04,,CLR,0.59,VWS V14.01,2013-04-24 00:03:00,
2013-04-23 19:04:00,38.5,38.5,29.96,NNW,345,15.4,15.4,100,0.04,,CLR,0.59,VWS V14.01,2013-04-24 00:04:00,
2013-04-23 19:05:00,38.5,38.5,29.96,NW,320,10.1,15.4,100,0.04,,CLR,0.59,VWS V14.01,2013-04-24 00:05:00,
2013-04-23 19:06:00,38.5,38.5,29.96,NNW,337,10.1,11.4,100,0.04,,CLR,0.59,VWS V14.01,2013-04-24 00:06:00,
2013-04-23 19:08:00,38.5,38.5,29.96,North,357,8.3,11.9,100,0.04,,CLR,0.59,VWS V14.01,2013-04-24 00:08:00,
2013-04-23 19:10:00,38.5,38.5,29.99,North,353,13.2,13.2,100,0.04,,CLR,0.59,VWS V14.01,2013-04-24 00:10:00,
2013-04-23 19:11:00,38.5,38.5,29.99,North,2,10.1,13.2,100,0.04,,CLR,0.59,VWS V14.01,2013-04-24 00:11:00,
2013-04-23 19:12:00,38.5,38.5,29.99,NNW,327,13.6,17.0,100,0.04,,CLR,0.59,VWS V14.01,2013-04-24 00:12:00,
2013-04-23 19:13:00,38.5,38.5,29.99,North,0,8.1,10.5,100,0.04,,CLR,0.59,VWS V14.01,2013-04-24 00:13:00,
2013-04-23 19:15:00,38.5,38.5,29.99,NNW,345,13.2,13.2,100,0.04,,CLR,0.59,VWS V14.01,2013-04-24 00:15:00,
2013-04-23 19:16:00,38.5,38.5,29.99,NNW,346,12.8,13.2,100,0.04,,CLR,0.59,VWS V14.01,2013-04-24 00:16:00,
2013-04-23 19:17:00,38.5,38.5,29.99,NNW,334,10.5,12.8,100,0.04,,CLR,0.59,VWS V14.01,2013-04-24 00:17:00,
2013-04-23 19:19:00,38.5,38.5,29.99,NNE,22,10.5,10.5,100,0.04,,CLR,0.59,VWS V14.01,2013-04-24 00:19:00,
2013-04-23 19:21:00,38.5,38.5,29.99,North,353,9.6,13.2,100,0.04,,CLR,0.59,VWS V14.01,2013-04-24 00:21:00,
2013-04-23 19:22:00,38.5,38.5,29.99,NNW,338,8.7,9.6,100,0.04,,CLR,0.59,VWS V14.01,2013-04-24 00:22:00,
2013-04-23 19:24:00,38.5,38.5,29.99,NNW,339,10.1,10.1,100,0.04,,CLR,0.59,VWS V14.01,2013-04-24 00:24:00,
2013-04-23 19:26:00,38.7,38.7,29.99,NNW,335,8.7,11.0,100,0.04,,CLR,0.59,VWS V14.01,2013-04-24 00:26:00,
2013-04-23 19:27:00,38.7,38.7,29.99,NNW,339,10.5,12.8,100,0.04,,CLR,0.59,VWS V14.01,2013-04-24 00:27:00,
2013-04-23 19:29:00,38.7,38.7,29.99,North,0,8.7,8.7,100,0.04,,CLR,0.59,VWS V14.01,2013-04-24 00:29:00,
2013-04-23 19:30:00,38.7,38.7,29.99,North,357,10.1,13.2,100,0.04,,CLR,0.59,VWS V14.01,2013-04-24 00:30:00,
2013-04-23 19:32:00,38.7,38.7,29.99,North,357,16.3,16.3,100,0.04,,CLR,0.59,VWS V14.01,2013-04-24 00:32:00,
2013-04-23 19:35:00,38.5,38.5,29.99,NNW,337,12.8,15.4,100,0.04,,CLR,0.59,VWS V14.01,2013-04-24 00:35:00,
2013-04-23 19:36:00,38.5,38.5,29.99,North,353,10.5,12.8,100,0.04,,CLR,0.59,VWS V14.01,2013-04-24 00:36:00,
2013-04-23 19:37:00,38.5,38.5,29.99,North,0,11.9,11.9,100,0.04,,CLR,0.59,VWS V14.01,2013-04-24 00:37:00,
2013-04-23 19:38:00,38.5,38.5,29.99,North,1,12.8,12.8,100,0.04,,CLR,0.59,VWS V14.01,2013-04-24 00:38:00,
2013-04-23 19:40:00,38.5,38.5,29.99,North,353,11.0,11.0,100,0.04,,CLR,0.59,VWS V14.01,2013-04-24 00:40:00,
2013-04-23 19:41:00,38.5,38.5,29.99,North,0,12.3,12.3,100,0.04,,CLR,0.59,VWS V14.01,2013-04-24 00:41:00,
2013-04-23 19:42:00,38.5,38.5,29.99,North,0,10.1,13.2,100,0.04,,CLR,0.59,VWS V14.01,2013-04-24 00:42:00,
2013-04-23 19:43:00,38.5,38.5,29.99,NNE,15,8.7,10.5,100,0.04,,CLR,0.59,VWS V14.01,2013-04-24 00:43:00,
2013-04-23 19:45:00,38.5,38.5,29.99,NNW,346,8.1,11.0,100,0.04,,CLR,0.59,VWS V14.01,2013-04-24 00:45:00,
2013-04-23 19:46:00,38.5,38.5,29.99,NW,324,10.5,10.5,100,0.04,,CLR,0.59,VWS V14.01,2013-04-24 00:46:00,
2013-04-23 19:47:00,38.7,38.7,29.99,NW,325,10.5,11.0,100,0.04,,CLR,0.59,VWS V14.01,2013-04-24 00:47:00,
2013-04-23 19:49:00,38.7,38.7,29.99,NNW,329,12.3,12.8,100,0.04,,CLR,0.59,VWS V14.01,2013-04-24 00:49:00,
2013-04-23 19:51:00,38.5,38.5,29.99,North,0,13.2,13.2,100,0.04,,CLR,0.59,VWS V14.01,2013-04-24 00:51:00,
2013-04-23 19:52:00,38.5,38.5,29.99,NNW,339,10.1,10.5,100,0.04,,CLR,0.59,VWS V14.01,2013-04-24 00:52:00,
2013-04-23 19:53:00,38.5,38.5,29.99,North,353,14.5,17.4,100,0.04,,CLR,0.59,VWS V14.01,2013-04-24 00:53:00,
2013-04-23 19:54:00,38.5,38.5,29.99,NNW,331,11.0,17.4,100,0.04,,CLR,0.59,VWS V14.01,2013-04-24 00:54:00,
2013-04-23 19:56:00,38.5,38.5,29.99,North,353,14.1,15.0,100,0.00,,CLR,0.59,VWS V14.01,2013-04-24 00:56:00,
2013-04-23 19:58:00,38.5,38.5,29.99,NNW,348,11.0,12.8,100,0.00,,CLR,0.59,VWS V14.01,2013-04-24 00:58:00,
2013-04-23 19:59:00,38.5,38.5,29.99,NNW,333,12.8,12.8,100,0.00,,CLR,0.59,VWS V14.01,2013-04-24 00:59:00,
2013-04-23 20:01:00,38.5,38.5,29.99,NNW,341,13.2,13.2,100,0.00,,CLR,0.59,VWS V14.01,2013-04-24 01:01:00,
2013-04-23 20:02:00,38.5,38.5,29.99,NNW,335,11.0,13.2,100,0.00,,CLR,0.59,VWS V14.01,2013-04-24 01:02:00,
2013-04-23 20:03:00,38.5,38.5,29.99,NNW,342,11.0,13.6,100,0.00,,CLR,0.59,VWS V14.01,2013-04-24 01:03:00,
2013-04-23 20:04:00,38.5,38.5,29.99,NNW,337,10.1,10.5,100,0.00,,CLR,0.59,VWS V14.01,2013-04-24 01:04:00,
2013-04-23 20:07:00,38.5,38.5,29.99,North,8,10.1,10.5,100,0.00,,CLR,0.59,VWS V14.01,2013-04-24 01:07:00,
2013-04-23 20:08:00,38.5,38.5,29.99,NE,36,11.0,12.3,100,0.00,,CLR,0.59,VWS V14.01,2013-04-24 01:08:00,
2013-04-23 20:09:00,38.5,38.5,29.99,NNW,341,8.7,11.0,100,0.00,,CLR,0.59,VWS V14.01,2013-04-24 01:09:00,
2013-04-23 20:10:00,38.5,38.5,29.99,North,0,8.3,9.6,100,0.00,,CLR,0.59,VWS V14.01,2013-04-24 01:10:00,
2013-04-23 20:12:00,38.5,38.5,29.99,NNW,341,10.1,10.5,100,0.00,,CLR,0.59,VWS V14.01,2013-04-24 01:12:00,
2013-04-23 20:13:00,38.5,38.5,29.99,NNW,333,10.5,10.5,100,0.00,,CLR,0.59,VWS V14.01,2013-04-24 01:13:00,
2013-04-23 20:14:00,38.5,38.5,29.99,NNW,330,10.5,12.8,100,0.00,,CLR,0.59,VWS V14.01,2013-04-24 01:14:00,
2013-04-23 20:15:00,38.5,38.5,29.99,NNW,333,11.0,11.0,100,0.00,,CLR,0.59,VWS V14.01,2013-04-24 01:15:00,
2013-04-23 20:17:00,38.5,38.5,29.99,NNW,346,11.0,11.0,100,0.00,,CLR,0.59,VWS V14.01,2013-04-24 01:17:00,
2013-04-23 20:18:00,38.5,38.5,29.99,NNW,342,8.7,8.7,100,0.00,,CLR,0.59,VWS V14.01,2013-04-24 01:18:00,
2013-04-23 20:20:00,38.5,38.5,29.99,NW,322,13.2,13.2,100,0.00,,CLR,0.59,VWS V14.01,2013-04-24 01:20:00,
2013-04-23 20:22:00,38.5,38.5,29.99,NNW,331,9.2,11.0,100,0.00,,CLR,0.59,VWS V14.01,2013-04-24 01:22:00,
2013-04-23 20:23:00,38.5,38.5,29.99,NNW,328,11.0,11.9,100,0.00,,CLR,0.59,VWS V14.01,2013-04-24 01:23:00,
2013-04-23 20:24:00,38.5,38.5,29.99,NNW,338,6.7,8.7,100,0.00,,CLR,0.59,VWS V14.01,2013-04-24 01:24:00,
2013-04-23 20:25:00,38.5,38.5,29.99,NNW,337,8.7,8.7,100,0.00,,CLR,0.59,VWS V14.01,2013-04-24 01:25:00,
2013-04-23 20:28:00,38.5,38.5,29.99,NNE,20,10.1,11.4,100,0.00,,CLR,0.59,VWS V14.01,2013-04-24 01:28:00,
2013-04-23 20:29:00,38.5,38.5,29.99,NNW,346,11.0,11.0,100,0.00,,CLR,0.59,VWS V14.01,2013-04-24 01:29:00,
2013-04-23 20:30:00,38.5,38.5,29.99,North,0,12.3,12.3,100,0.00,,CLR,0.59,VWS V14.01,2013-04-24 01:30:00,
2013-04-23 20:31:00,38.5,38.5,29.99,NNW,343,7.6,8.1,100,0.00,,CLR,0.59,VWS V14.01,2013-04-24 01:31:00,
2013-04-23 20:35:00,38.5,38.5,29.99,NNW,338,12.3,12.3,100,0.00,,CLR,0.59,VWS V14.01,2013-04-24 01:35:00,
2013-04-23 20:37:00,38.5,38.5,29.99,North,353,8.1,8.1,100,0.00,,CLR,0.59,VWS V14.01,2013-04-24 01:37:00,
2013-04-23 20:40:00,38.5,38.5,29.99,North,9,8.3,8.3,100,0.00,,CLR,0.59,VWS V14.01,2013-04-24 01:40:00,
2013-04-23 20:41:00,38.5,38.5,29.99,North,353,15.0,15.0,100,0.00,,CLR,0.59,VWS V14.01,2013-04-24 01:41:00,
2013-04-23 20:42:00,38.5,38.5,29.99,North,353,10.1,15.0,100,0.00,,CLR,0.59,VWS V14.01,2013-04-24 01:42:00,
2013-04-23 20:43:00,38.5,38.5,29.99,North,357,15.4,15.4,100,0.00,,CLR,0.59,VWS V14.01,2013-04-24 01:43:00,
2013-04-23 20:46:00,38.5,38.5,29.99,NNW,333,11.0,11.0,100,0.00,,CLR,0.59,VWS V14.01,2013-04-24 01:46:00,
2013-04-23 20:47:00,38.5,38.5,29.99,NNW,331,10.5,13.2,100,0.00,,CLR,0.59,VWS V14.01,2013-04-24 01:47:00,
2013-04-23 20:49:00,38.7,38.7,29.99,NNW,342,10.1,11.0,100,0.00,,CLR,0.59,VWS V14.01,2013-04-24 01:49:00,
2013-04-23 20:51:00,38.7,38.7,29.99,North,0,10.1,10.5,100,0.00,,CLR,0.59,VWS V14.01,2013-04-24 01:51:00,
2013-04-23 20:52:00,38.7,38.7,29.99,North,349,10.5,10.5,100,0.00,,CLR,0.59,VWS V14.01,2013-04-24 01:52:00,
2013-04-23 20:53:00,38.7,38.7,29.99,NNW,343,8.1,10.5,100,0.00,,CLR,0.59,VWS V14.01,2013-04-24 01:53:00,
2013-04-23 20:55:00,38.7,38.7,29.99,NNW,329,8.1,8.7,100,0.00,,CLR,0.59,VWS V14.01,2013-04-24 01:55:00,
2013-04-23 20:57:00,38.7,38.7,29.99,NNW,343,8.3,8.3,100,0.00,,CLR,0.59,VWS V14.01,2013-04-24 01:57:00,
2013-04-23 20:58:00,38.7,38.7,29.99,NNW,335,8.7,8.7,100,0.00,,CLR,0.59,VWS V14.01,2013-04-24 01:58:00,
2013-04-23 21:00:00,38.7,38.7,29.99,NW,324,13.2,13.2,100,0.00,,CLR,0.59,VWS V14.01,2013-04-24 02:00:00,
2013-04-23 21:02:00,38.7,38.7,29.99,NNW,338,11.0,12.8,100,0.00,,CLR,0.59,VWS V14.01,2013-04-24 02:02:00,
2013-04-23 21:04:00,38.7,38.7,29.99,NW,326,8.1,15.4,100,0.00,,CLR,0.59,VWS V14.01,2013-04-24 02:04:00,
2013-04-23 21:05:00,38.7,38.7,29.99,NNW,342,8.7,8.7,100,0.00,,CLR,0.59,VWS V14.01,2013-04-24 02:05:00,
2013-04-23 21:07:00,38.7,38.7,29.99,NNW,332,11.0,12.3,100,0.00,,CLR,0.59,VWS V14.01,2013-04-24 02:07:00,
2013-04-23 21:09:00,38.7,38.7,29.99,NW,322,12.8,13.6,100,0.00,,CLR,0.59,VWS V14.01,2013-04-24 02:09:00,
2013-04-23 21:11:00,38.7,38.7,30.02,NW,325,8.3,9.6,100,0.00,,CLR,0.59,VWS V14.01,2013-04-24 02:11:00,
2013-04-23 21:12:00,38.7,38.7,30.02,NNW,332,8.1,9.6,100,0.00,,CLR,0.59,VWS V14.01,2013-04-24 02:12:00,
2013-04-23 21:13:00,38.8,38.8,30.02,NNW,329,11.0,11.0,100,0.00,,CLR,0.59,VWS V14.01,2013-04-24 02:13:00,
2013-04-23 21:14:00,38.8,38.8,30.02,NNW,341,10.1,11.0,100,0.00,,CLR,0.59,VWS V14.01,2013-04-24 02:14:00,
2013-04-23 21:18:00,38.8,38.8,30.02,NNW,329,10.5,13.2,100,0.00,,CLR,0.59,VWS V14.01,2013-04-24 02:18:00,
2013-04-23 21:19:00,38.8,38.8,30.02,NNW,333,8.7,10.1,100,0.00,,CLR,0.59,VWS V14.01,2013-04-24 02:19:00,
2013-04-23 21:20:00,38.8,38.8,30.02,NNW,328,9.6,10.5,100,0.00,,CLR,0.59,VWS V14.01,2013-04-24 02:20:00,
2013-04-23 21:26:00,38.8,38.8,30.02,NW,326,10.5,12.8,100,0.00,,CLR,0.59,VWS V14.01,2013-04-24 02:26:00,
2013-04-23 21:27:00,38.8,38.8,30.02,NNW,336,8.3,8.7,100,0.00,,CLR,0.59,VWS V14.01,2013-04-24 02:27:00,
2013-04-23 21:32:00,38.8,38.8,30.02,NNW,329,8.1,10.5,100,0.00,,CLR,0.59,VWS V14.01,2013-04-24 02:32:00,
2013-04-23 21:37:00,38.8,38.8,30.02,NNW,327,10.5,10.5,100,0.00,,CLR,0.59,VWS V14.01,2013-04-24 02:37:00,
2013-04-23 21:38:00,38.8,38.8,30.02,NNW,348,10.1,10.5,100,0.00,,CLR,0.59,VWS V14.01,2013-04-24 02:38:00,
2013-04-23 21:43:00,38.8,38.8,30.02,NNW,340,11.4,13.2,100,0.00,,CLR,0.59,VWS V14.01,2013-04-24 02:43:00,
2013-04-23 21:44:00,38.8,38.8,30.02,NNW,339,11.0,12.8,100,0.00,,CLR,0.59,VWS V14.01,2013-04-24 02:44:00,
2013-04-23 21:48:00,38.7,38.7,30.02,NNW,329,10.1,10.1,100,0.00,,CLR,0.59,VWS V14.01,2013-04-24 02:48:00,
2013-04-23 21:49:00,38.8,38.8,30.02,NNW,338,8.1,10.1,100,0.00,,CLR,0.59,VWS V14.01,2013-04-24 02:49:00,
2013-04-23 21:50:00,38.8,38.8,30.02,NW,322,11.4,11.4,100,0.00,,CLR,0.59,VWS V14.01,2013-04-24 02:50:00,
2013-04-23 21:51:00,38.8,38.8,30.02,NW,321,9.2,11.4,100,0.00,,CLR,0.59,VWS V14.01,2013-04-24 02:51:00,
2013-04-23 21:54:00,38.8,38.8,30.02,NNW,331,10.5,12.3,100,0.00,,CLR,0.59,VWS V14.01,2013-04-24 02:54:00,
2013-04-23 21:55:00,38.8,38.8,30.02,NNW,334,8.7,11.0,100,0.00,,CLR,0.59,VWS V14.01,2013-04-24 02:55:00,
2013-04-23 21:56:00,38.8,38.8,30.02,NW,325,8.7,10.5,100,0.00,,CLR,0.59,VWS V14.01,2013-04-24 02:56:00,
2013-04-23 21:57:00,38.7,38.7,30.02,NNW,341,11.0,11.4,100,0.00,,CLR,0.59,VWS V14.01,2013-04-24 02:57:00,
2013-04-23 21:59:00,38.8,38.8,30.02,NW,325,10.1,12.8,100,0.00,,CLR,0.59,VWS V14.01,2013-04-24 02:59:00,
2013-04-23 22:00:00,38.8,38.8,30.02,North,0,10.5,10.5,100,0.00,,CLR,0.59,VWS V14.01,2013-04-24 03:00:00,
2013-04-23 22:01:00,38.8,38.8,30.02,NW,322,11.4,11.4,100,0.00,,CLR,0.59,VWS V14.01,2013-04-24 03:01:00,
2013-04-23 22:02:00,38.8,38.8,30.02,NNW,330,7.6,11.4,100,0.00,,CLR,0.59,VWS V14.01,2013-04-24 03:02:00,
2013-04-23 22:05:00,38.8,38.8,30.02,NW,324,8.1,8.7,100,0.00,,CLR,0.59,VWS V14.01,2013-04-24 03:05:00,
2013-04-23 22:06:00,38.8,38.8,30.02,NNW,327,8.1,8.1,100,0.00,,CLR,0.59,VWS V14.01,2013-04-24 03:06:00,
2013-04-23 22:08:00,38.8,38.8,30.02,NNW,331,11.9,11.9,100,0.00,,CLR,0.59,VWS V14.01,2013-04-24 03:08:00,
2013-04-23 22:09:00,38.8,38.8,30.02,NNW,329,8.7,11.4,100,0.00,,CLR,0.59,VWS V14.01,2013-04-24 03:09:00,
2013-04-23 22:10:00,38.8,38.8,30.02,NNW,338,8.1,9.6,100,0.00,,CLR,0.59,VWS V14.01,2013-04-24 03:10:00,
2013-04-23 22:12:00,38.8,38.8,30.02,NNW,332,8.7,10.1,100,0.00,,CLR,0.59,VWS V14.01,2013-04-24 03:12:00,
2013-04-23 22:13:00,38.8,38.8,30.02,NNW,327,8.1,11.0,100,0.00,,CLR,0.59,VWS V14.01,2013-04-24 03:13:00,
2013-04-23 22:14:00,38.8,38.8,30.02,NNW,340,10.5,10.5,100,0.00,,CLR,0.59,VWS V14.01,2013-04-24 03:14:00,
2013-04-23 22:17:00,38.8,38.8,30.02,NNW,328,8.3,8.7,100,0.00,,CLR,0.59,VWS V14.01,2013-04-24 03:17:00,
2013-04-23 22:18:00,38.8,38.8,30.02,NNW,334,10.5,10.5,100,0.00,,CLR,0.59,VWS V14.01,2013-04-24 03:18:00,
2013-04-23 22:19:00,38.8,38.8,30.02,NW,325,8.7,10.1,100,0.00,,CLR,0.59,VWS V14.01,2013-04-24 03:19:00,
2013-04-23 22:23:00,38.8,38.8,30.02,NW,318,10.5,11.0,100,0.00,,CLR,0.59,VWS V14.01,2013-04-24 03:23:00,
2013-04-23 22:24:00,38.8,38.8,30.02,NW,308,10.1,11.0,100,0.00,,CLR,0.59,VWS V14.01,2013-04-24 03:24:00,
2013-04-23 22:25:00,38.8,38.8,30.02,NW,314,12.8,12.8,100,0.00,,CLR,0.59,VWS V14.01,2013-04-24 03:25:00,
2013-04-23 22:28:00,38.8,38.8,30.02,NW,322,7.6,10.1,100,0.00,,CLR,0.59,VWS V14.01,2013-04-24 03:28:00,
2013-04-23 22:29:00,38.8,38.8,30.02,NNW,329,8.7,8.7,100,0.00,,CLR,0.59,VWS V14.01,2013-04-24 03:29:00,
2013-04-23 22:30:00,38.8,38.8,30.02,NNW,334,7.6,8.7,100,0.00,,CLR,0.59,VWS V14.01,2013-04-24 03:30:00,
2013-04-23 22:32:00,39.0,39.0,30.02,NW,315,8.3,10.1,100,0.00,,CLR,0.59,VWS V14.01,2013-04-24 03:32:00,
2013-04-23 22:34:00,39.0,39.0,30.02,NNW,327,10.1,10.1,100,0.00,,CLR,0.59,VWS V14.01,2013-04-24 03:34:00,
2013-04-23 22:36:00,39.0,39.0,30.02,NW,324,8.1,8.1,100,0.00,,CLR,0.59,VWS V14.01,2013-04-24 03:36:00,
2013-04-23 22:37:00,39.0,39.0,30.02,NW,320,8.7,8.7,100,0.00,,CLR,0.59,VWS V14.01,2013-04-24 03:37:00,
2013-04-23 22:39:00,39.0,39.0,30.05,NW,310,10.1,10.1,100,0.00,,CLR,0.59,VWS V14.01,2013-04-24 03:39:00,
2013-04-23 22:41:00,39.0,39.0,30.05,NW,324,11.0,11.0,100,0.00,,CLR,0.59,VWS V14.01,2013-04-24 03:41:00,
2013-04-23 22:42:00,38.8,38.8,30.05,North,353,7.6,10.5,100,0.00,,CLR,0.59,VWS V14.01,2013-04-24 03:42:00,
2013-04-23 22:45:00,38.8,38.8,30.05,NNW,335,10.1,12.3,100,0.00,,CLR,0.59,VWS V14.01,2013-04-24 03:45:00,
2013-04-23 22:46:00,38.7,38.7,30.05,NNW,331,7.6,8.1,100,0.00,,CLR,0.59,VWS V14.01,2013-04-24 03:46:00,
2013-04-23 22:47:00,38.8,38.8,30.05,NNW,330,11.0,11.0,100,0.00,,CLR,0.59,VWS V14.01,2013-04-24 03:47:00,
2013-04-23 22:49:00,38.7,38.7,30.05,NNW,331,10.1,10.5,100,0.00,,CLR,0.59,VWS V14.01,2013-04-24 03:49:00,
2013-04-23 22:50:00,38.7,38.7,30.05,NNW,340,8.7,8.7,100,0.00,,CLR,0.59,VWS V14.01,2013-04-24 03:50:00,
2013-04-23 22:52:00,38.8,38.8,30.05,NW,321,10.1,10.1,100,0.00,,CLR,0.59,VWS V14.01,2013-04-24 03:52:00,
2013-04-23 22:53:00,38.7,38.7,30.05,NW,316,10.5,12.3,100,0.00,,CLR,0.59,VWS V14.01,2013-04-24 03:53:00,
2013-04-23 22:54:00,38.8,38.8,30.02,North,353,8.1,10.1,100,0.00,,CLR,0.59,VWS V14.01,2013-04-24 03:54:00,
2013-04-23 22:55:00,38.8,38.8,30.02,NNW,329,10.1,11.0,100,0.00,,CLR,0.59,VWS V14.01,2013-04-24 03:55:00,
2013-04-23 22:57:00,38.8,38.8,30.02,NNW,331,13.2,13.2,100,0.00,,CLR,0.59,VWS V14.01,2013-04-24 03:57:00,
2013-04-23 22:58:00,38.7,38.7,30.02,NNW,335,10.1,10.1,100,0.00,,CLR,0.59,VWS V14.01,2013-04-24 03:58:00,
2013-04-23 23:00:00,38.8,38.8,30.02,NNW,336,8.3,8.3,100,0.00,,CLR,0.59,VWS V14.01,2013-04-24 04:00:00,
2013-04-23 23:01:00,38.8,38.8,30.02,NNW,329,7.6,8.3,100,0.04,,CLR,0.63,VWS V14.01,2013-04-24 04:01:00,
2013-04-23 23:03:00,38.7,38.7,30.02,NW,324,8.1,8.3,100,0.04,,CLR,0.63,VWS V14.01,2013-04-24 04:03:00,
2013-04-23 23:06:00,38.8,38.8,30.02,NW,326,8.3,10.5,100,0.04,,CLR,0.63,VWS V14.01,2013-04-24 04:06:00,
2013-04-23 23:07:00,38.7,38.7,30.02,NNW,331,8.3,12.8,100,0.04,,CLR,0.63,VWS V14.01,2013-04-24 04:07:00,
2013-04-23 23:09:00,38.7,38.7,30.02,NNW,333,12.3,12.3,100,0.04,,CLR,0.63,VWS V14.01,2013-04-24 04:09:00,
2013-04-23 23:11:00,38.7,38.7,30.02,NNW,332,8.7,8.7,100,0.04,,CLR,0.63,VWS V14.01,2013-04-24 04:11:00,
2013-04-23 23:12:00,38.7,38.7,30.02,NW,321,11.0,11.0,100,0.04,,CLR,0.63,VWS V14.01,2013-04-24 04:12:00,
2013-04-23 23:13:00,38.7,38.7,30.02,NNW,327,8.7,10.1,100,0.04,,CLR,0.63,VWS V14.01,2013-04-24 04:13:00,
2013-04-23 23:14:00,38.7,38.7,30.02,NW,324,8.7,12.8,100,0.04,,CLR,0.63,VWS V14.01,2013-04-24 04:14:00,
2013-04-23 23:16:00,38.7,38.7,30.02,NNW,336,8.7,9.2,100,0.04,,CLR,0.63,VWS V14.01,2013-04-24 04:16:00,
2013-04-23 23:17:00,38.7,38.7,30.02,NNW,327,8.1,8.1,100,0.04,,CLR,0.63,VWS V14.01,2013-04-24 04:17:00,
2013-04-23 23:18:00,38.7,38.7,30.02,NW,320,8.1,8.3,100,0.04,,CLR,0.63,VWS V14.01,2013-04-24 04:18:00,
2013-04-23 23:20:00,38.7,38.7,30.02,NW,321,10.5,12.3,100,0.04,,CLR,0.63,VWS V14.01,2013-04-24 04:20:00,
2013-04-23 23:22:00,38.7,38.7,30.02,NNW,335,8.3,8.3,100,0.04,,CLR,0.63,VWS V14.01,2013-04-24 04:22:00,
2013-04-23 23:23:00,38.7,38.7,30.02,NNW,342,8.3,8.3,100,0.04,,CLR,0.63,VWS V14.01,2013-04-24 04:23:00,
2013-04-23 23:26:00,38.8,38.8,30.02,NNW,340,12.8,12.8,100,0.04,,CLR,0.63,VWS V14.01,2013-04-24 04:26:00,
2013-04-23 23:27:00,38.7,38.7,30.02,NNW,329,12.3,12.8,100,0.04,,CLR,0.63,VWS V14.01,2013-04-24 04:27:00,
2013-04-23 23:28:00,38.7,38.7,30.02,NNW,333,8.1,10.5,100,0.04,,CLR,0.63,VWS V14.01,2013-04-24 04:28:00,
2013-04-23 23:31:00,38.7,38.7,30.02,NNW,340,8.1,10.5,100,0.04,,CLR,0.63,VWS V14.01,2013-04-24 04:31:00,
2013-04-23 23:32:00,38.8,38.8,30.02,NNW,345,13.2,13.2,100,0.04,,CLR,0.63,VWS V14.01,2013-04-24 04:32:00,
2013-04-23 23:34:00,38.7,38.7,30.02,NNW,345,10.1,15.4,100,0.04,,CLR,0.63,VWS V14.01,2013-04-24 04:34:00,
2013-04-23 23:36:00,38.7,38.7,30.02,NNW,334,13.2,13.2,100,0.04,,CLR,0.63,VWS V14.01,2013-04-24 04:36:00,
2013-04-23 23:37:00,38.7,38.7,30.02,NW,326,17.4,17.4,100,0.04,,CLR,0.63,VWS V14.01,2013-04-24 04:37:00,
2013-04-23 23:38:00,38.5,38.5,30.02,NW,324,12.3,17.4,100,0.04,,CLR,0.63,VWS V14.01,2013-04-24 04:38:00,
2013-04-23 23:39:00,38.7,38.7,30.02,NNW,333,11.0,14.5,100,0.04,,CLR,0.63,VWS V14.01,2013-04-24 04:39:00,
2013-04-23 23:42:00,38.8,38.8,30.02,North,0,13.2,15.4,100,0.04,,CLR,0.63,VWS V14.01,2013-04-24 04:42:00,
2013-04-23 23:43:00,38.7,38.2,30.02,NNW,333,14.5,14.5,98,0.04,,CLR,0.63,VWS V14.01,2013-04-24 04:43:00,
2013-04-23 23:45:00,38.8,36.7,30.02,North,357,13.2,13.2,92,0.04,,CLR,0.63,VWS V14.01,2013-04-24 04:45:00,
2013-04-23 23:47:00,38.8,36.2,30.02,North,353,15.0,15.0,90,0.04,,CLR,0.63,VWS V14.01,2013-04-24 04:47:00,
2013-04-23 23:48:00,39.0,36.3,30.02,North,353,12.8,13.2,90,0.04,,CLR,0.63,VWS V14.01,2013-04-24 04:48:00,
2013-04-23 23:49:00,38.8,36.2,30.02,NNE,12,15.0,18.8,90,0.04,,CLR,0.63,VWS V14.01,2013-04-24 04:49:00,
2013-04-23 23:51:00,38.8,35.6,30.02,NNW,345,10.1,16.3,88,0.04,,CLR,0.63,VWS V14.01,2013-04-24 04:51:00,
2013-04-23 23:53:00,38.8,35.6,30.02,NNW,342,10.5,12.8,88,0.04,,CLR,0.63,VWS V14.01,2013-04-24 04:53:00,
2013-04-23 23:54:00,38.8,35.6,30.05,North,7,10.5,16.3,88,0.04,,CLR,0.63,VWS V14.01,2013-04-24 04:54:00,
2013-04-23 23:56:00,38.7,34.8,30.05,North,0,17.4,21.0,86,0.04,,CLR,0.63,VWS V14.01,2013-04-24 04:56:00,
2013-04-23 23:59:00,38.8,35.0,30.05,North,9,15.4,15.9,86,0.04,,CLR,0.63,VWS V14.01,2013-04-24 04:59:00,